Time,TemperatureF,DewpointF,PressureIn,WindDirection,WindDirectionDegrees,WindSpeedMPH,WindSpeedGustMPH,Humidity,HourlyPrecipIn,Conditions,Clouds,dailyrainin,SolarRadiationWatts/m^2,SoftwareType,DateUTC
2013-02-05 00:00:00,10.3,6.7,29.93,East,79,2.0,2.0,85,0.00,,,0.00,0,Wunderground v.1.15,2013-02-05 05:00:00,
2013-02-05 00:01:00,10.3,6.7,29.93,SSE,165,1.0,2.0,85,0.00,,,0.00,0,Wunderground v.1.15,2013-02-05 05:01:00,
2013-02-05 00:02:00,10.2,6.6,29.93,SSE,148,2.0,2.0,85,0.00,,,0.00,0,Wunderground v.1.15,2013-02-05 05:02:00,
2013-02-05 00:04:00,10.2,6.8,29.93,SSE,165,2.0,5.0,86,0.00,,,0.00,0,Wunderground v.1.15,2013-02-05 05:04:00,
2013-02-05 00:07:00,10.1,6.5,29.93,SE,126,2.0,5.0,85,0.00,,,0.00,0,Wunderground v.1.15,2013-02-05 05:07:00,
2013-02-05 00:09:00,10.0,6.4,29.93,SSW,192,2.0,5.0,85,0.00,,,0.00,0,Wunderground v.1.15,2013-02-05 05:09:00,
2013-02-05 00:12:00,9.9,6.3,29.93,SE,124,2.0,4.0,85,0.00,,,0.00,0,Wunderground v.1.15,2013-02-05 05:12:00,
2013-02-05 00:14:00,9.9,6.3,29.93,SE,127,2.0,6.0,85,0.00,,,0.00,0,Wunderground v.1.15,2013-02-05 05:14:00,
2013-02-05 00:15:00,9.9,6.3,29.93,South,178,2.0,6.0,85,0.00,,,0.00,0,Wunderground v.1.15,2013-02-05 05:15:00,
2013-02-05 00:16:00,9.9,6.3,29.93,ESE,102,2.0,6.0,85,0.00,,,0.00,0,Wunderground v.1.15,2013-02-05 05:16:00,
2013-02-05 00:18:00,9.8,6.2,29.93,SSE,150,2.0,7.0,85,0.00,,,0.00,0,Wunderground v.1.15,2013-02-05 05:18:00,
2013-02-05 00:21:00,9.8,5.9,29.93,SSE,163,3.0,6.0,84,0.00,,,0.00,0,Wunderground v.1.15,2013-02-05 05:21:00,
2013-02-05 00:22:00,9.7,5.8,29.93,South,170,3.0,6.0,84,0.00,,,0.00,0,Wunderground v.1.15,2013-02-05 05:22:00,
2013-02-05 00:25:00,9.6,5.5,29.93,SW,217,4.0,7.0,83,0.00,,,0.00,0,Wunderground v.1.15,2013-02-05 05:25:00,
2013-02-05 00:27:00,9.5,5.4,29.93,SSE,150,4.0,7.0,83,0.00,,,0.00,0,Wunderground v.1.15,2013-02-05 05:27:00,
2013-02-05 00:32:00,9.4,5.3,29.93,SSE,166,4.0,5.0,83,0.00,,,0.00,0,Wunderground v.1.15,2013-02-05 05:32:00,
2013-02-05 00:37:00,9.4,5.3,29.93,South,178,3.0,6.0,83,0.00,,,0.00,0,Wunderground v.1.15,2013-02-05 05:37:00,
2013-02-05 00:39:00,9.4,5.0,29.93,South,178,3.0,6.0,82,0.00,,,0.00,0,Wunderground v.1.15,2013-02-05 05:39:00,
2013-02-05 00:40:00,9.4,5.0,29.93,SSE,166,3.0,9.0,82,0.00,,,0.00,0,Wunderground v.1.15,2013-02-05 05:40:00,
2013-02-05 00:44:00,9.5,5.1,29.93,NNE,26,3.0,9.0,82,0.00,,,0.00,0,Wunderground v.1.15,2013-02-05 05:44:00,
2013-02-05 00:45:00,9.5,5.4,29.93,South,188,3.0,9.0,83,0.00,,,0.00,0,Wunderground v.1.15,2013-02-05 05:45:00,
2013-02-05 00:49:00,9.4,5.3,29.93,ENE,57,2.0,9.0,83,0.00,,,0.00,0,Wunderground v.1.15,2013-02-05 05:49:00,
2013-02-05 00:52:00,9.4,5.3,29.93,South,172,2.0,5.0,83,0.00,,,0.00,0,Wunderground v.1.15,2013-02-05 05:52:00,
2013-02-05 00:53:00,9.4,5.3,29.93,South,169,2.0,5.0,83,0.00,,,0.00,0,Wunderground v.1.15,2013-02-05 05:53:00,
2013-02-05 00:56:00,9.2,5.1,29.93,SSE,167,3.0,7.0,83,0.00,,,0.00,0,Wunderground v.1.15,2013-02-05 05:56:00,
2013-02-05 00:59:00,9.1,5.0,29.93,North,360,3.0,7.0,83,0.00,,,0.00,0,Wunderground v.1.15,2013-02-05 05:59:00,
2013-02-05 01:00:00,9.1,5.0,29.93,South,169,3.0,3.0,83,0.00,,,0.00,0,Wunderground v.1.15,2013-02-05 06:00:00,
2013-02-05 01:01:00,9.1,5.0,29.93,SSE,167,3.0,4.0,83,0.00,,,0.00,0,Wunderground v.1.15,2013-02-05 06:01:00,
2013-02-05 01:03:00,9.0,5.1,29.93,South,174,3.0,4.0,84,0.00,,,0.00,0,Wunderground v.1.15,2013-02-05 06:03:00,
2013-02-05 01:05:00,9.0,5.1,29.93,SSE,164,2.0,6.0,84,0.00,,,0.00,0,Wunderground v.1.15,2013-02-05 06:05:00,
2013-02-05 01:06:00,9.0,5.1,29.93,SSE,165,2.0,6.0,84,0.00,,,0.00,0,Wunderground v.1.15,2013-02-05 06:06:00,
2013-02-05 01:09:00,8.9,5.1,29.93,South,173,2.0,9.0,84,0.00,,,0.00,0,Wunderground v.1.15,2013-02-05 06:09:00,
2013-02-05 01:11:00,8.9,4.8,29.93,South,175,4.0,13.0,83,0.00,,,0.00,0,Wunderground v.1.15,2013-02-05 06:11:00,
2013-02-05 01:13:00,8.9,4.8,29.93,South,174,5.0,13.0,83,0.00,,,0.00,0,Wunderground v.1.15,2013-02-05 06:13:00,
2013-02-05 01:14:00,8.9,4.8,29.93,South,175,5.0,13.0,83,0.00,,,0.00,0,Wunderground v.1.15,2013-02-05 06:14:00,
2013-02-05 01:15:00,8.9,4.8,29.93,South,173,5.0,13.0,83,0.00,,,0.00,0,Wunderground v.1.15,2013-02-05 06:15:00,
2013-02-05 01:19:00,8.9,4.8,29.92,ESE,102,5.0,13.0,83,0.00,,,0.00,0,Wunderground v.1.15,2013-02-05 06:19:00,
2013-02-05 01:20:00,9.0,4.9,29.93,East,96,4.0,4.0,83,0.00,,,0.00,0,Wunderground v.1.15,2013-02-05 06:20:00,
2013-02-05 01:22:00,9.0,4.9,29.92,NE,38,3.0,4.0,83,0.00,,,0.00,0,Wunderground v.1.15,2013-02-05 06:22:00,
2013-02-05 01:26:00,9.1,5.0,29.92,NE,45,1.0,4.0,83,0.00,,,0.00,0,Wunderground v.1.15,2013-02-05 06:26:00,
2013-02-05 01:27:00,9.1,5.0,29.92,NW,320,1.0,4.0,83,0.00,,,0.00,0,Wunderground v.1.15,2013-02-05 06:27:00,
2013-02-05 01:28:00,9.1,5.0,29.92,South,172,1.0,6.0,83,0.00,,,0.00,0,Wunderground v.1.15,2013-02-05 06:28:00,
2013-02-05 01:31:00,9.2,5.1,29.92,SSE,164,2.0,2.0,83,0.00,,,0.00,0,Wunderground v.1.15,2013-02-05 06:31:00,
2013-02-05 01:32:00,9.2,5.1,29.92,SSW,192,2.0,2.0,83,0.00,,,0.00,0,Wunderground v.1.15,2013-02-05 06:32:00,
2013-02-05 01:35:00,9.2,4.8,29.92,SSW,197,2.0,5.0,82,0.00,,,0.00,0,Wunderground v.1.15,2013-02-05 06:35:00,
2013-02-05 01:36:00,9.2,4.8,29.92,South,177,2.0,5.0,82,0.00,,,0.00,0,Wunderground v.1.15,2013-02-05 06:36:00,
2013-02-05 01:38:00,9.2,4.8,29.92,ESE,111,2.0,5.0,82,0.00,,,0.00,0,Wunderground v.1.15,2013-02-05 06:38:00,
2013-02-05 01:41:00,9.1,4.7,29.92,SW,219,1.0,2.0,82,0.00,,,0.00,0,Wunderground v.1.15,2013-02-05 06:41:00,
2013-02-05 01:42:00,9.2,4.8,29.92,SW,225,1.0,2.0,82,0.00,,,0.00,0,Wunderground v.1.15,2013-02-05 06:42:00,
2013-02-05 01:43:00,9.1,4.7,29.92,SW,229,1.0,2.0,82,0.00,,,0.00,0,Wunderground v.1.15,2013-02-05 06:43:00,
2013-02-05 01:47:00,9.2,4.8,29.92,WSW,251,0.0,2.0,82,0.00,,,0.00,0,Wunderground v.1.15,2013-02-05 06:47:00,
2013-02-05 01:48:00,9.2,4.8,29.92,WSW,255,0.0,2.0,82,0.00,,,0.00,0,Wunderground v.1.15,2013-02-05 06:48:00,
2013-02-05 01:49:00,9.2,5.1,29.92,WSW,255,0.0,2.0,83,0.00,,,0.00,0,Wunderground v.1.15,2013-02-05 06:49:00,
2013-02-05 01:54:00,9.4,5.3,29.91,West,269,0.0,2.0,83,0.00,,,0.00,0,Wunderground v.1.15,2013-02-05 06:54:00,
2013-02-05 01:55:00,9.4,5.3,29.92,West,269,0.0,2.0,83,0.00,,,0.00,0,Wunderground v.1.15,2013-02-05 06:55:00,
2013-02-05 01:56:00,9.4,5.3,29.92,West,270,0.0,2.0,83,0.00,,,0.00,0,Wunderground v.1.15,2013-02-05 06:56:00,
2013-02-05 02:02:00,9.4,5.0,29.92,South,170,0.0,5.0,82,0.00,,,0.00,0,Wunderground v.1.15,2013-02-05 07:02:00,
2013-02-05 02:03:00,9.4,5.0,29.92,West,260,0.0,5.0,82,0.00,,,0.00,0,Wunderground v.1.15,2013-02-05 07:03:00,
2013-02-05 02:08:00,9.6,5.2,29.92,SSE,168,1.0,5.0,82,0.00,,,0.00,0,Wunderground v.1.15,2013-02-05 07:08:00,
2013-02-05 02:11:00,9.6,4.9,29.91,SSE,156,1.0,2.0,81,0.00,,,0.00,0,Wunderground v.1.15,2013-02-05 07:11:00,
2013-02-05 02:12:00,9.6,4.9,29.91,SSE,156,1.0,2.0,81,0.00,,,0.00,0,Wunderground v.1.15,2013-02-05 07:12:00,
2013-02-05 02:13:00,9.7,5.0,29.91,SSE,156,1.0,2.0,81,0.00,,,0.00,0,Wunderground v.1.15,2013-02-05 07:13:00,
2013-02-05 02:14:00,9.7,5.0,29.91,SSE,156,1.0,2.0,81,0.00,,,0.00,0,Wunderground v.1.15,2013-02-05 07:14:00,
2013-02-05 02:18:00,9.7,5.0,29.91,SSE,156,0.0,2.0,81,0.00,,,0.00,0,Wunderground v.1.15,2013-02-05 07:18:00,
2013-02-05 02:19:00,9.7,5.0,29.91,SSE,156,0.0,2.0,81,0.00,,,0.00,0,Wunderground v.1.15,2013-02-05 07:19:00,
2013-02-05 02:21:00,9.6,4.9,29.91,SSE,156,0.0,2.0,81,0.00,,,0.00,0,Wunderground v.1.15,2013-02-05 07:21:00,
2013-02-05 02:22:00,9.6,4.9,29.91,SSE,156,0.0,2.0,81,0.00,,,0.00,0,Wunderground v.1.15,2013-02-05 07:22:00,
2013-02-05 02:24:00,9.6,4.9,29.91,SSE,156,0.0,2.0,81,0.00,,,0.00,0,Wunderground v.1.15,2013-02-05 07:24:00,
2013-02-05 02:27:00,9.6,4.9,29.91,SSE,156,0.0,2.0,81,0.00,,,0.00,0,Wunderground v.1.15,2013-02-05 07:27:00,
2013-02-05 02:30:00,9.5,4.6,29.91,SSE,156,0.0,2.0,80,0.00,,,0.00,0,Wunderground v.1.15,2013-02-05 07:30:00,
2013-02-05 02:31:00,9.5,4.8,29.91,SSE,156,0.0,2.0,81,0.00,,,0.00,0,Wunderground v.1.15,2013-02-05 07:31:00,
2013-02-05 02:33:00,9.5,4.6,29.91,SSW,195,0.0,2.0,80,0.00,,,0.00,0,Wunderground v.1.15,2013-02-05 07:33:00,
2013-02-05 02:34:00,9.5,4.6,29.91,SSW,206,0.0,2.0,80,0.00,,,0.00,0,Wunderground v.1.15,2013-02-05 07:34:00,
2013-02-05 02:35:00,9.5,4.6,29.91,SSW,206,0.0,2.0,80,0.00,,,0.00,0,Wunderground v.1.15,2013-02-05 07:35:00,
2013-02-05 02:40:00,9.5,4.6,29.91,SSW,207,0.0,2.0,80,0.00,,,0.00,0,Wunderground v.1.15,2013-02-05 07:40:00,
2013-02-05 02:41:00,9.5,4.6,29.91,SSW,207,0.0,2.0,80,0.00,,,0.00,0,Wunderground v.1.15,2013-02-05 07:41:00,
2013-02-05 02:44:00,9.5,4.6,29.91,SSW,207,0.0,2.0,80,0.00,,,0.00,0,Wunderground v.1.15,2013-02-05 07:44:00,
2013-02-05 02:47:00,9.5,4.6,29.91,SSW,207,0.0,2.0,80,0.00,,,0.00,0,Wunderground v.1.15,2013-02-05 07:47:00,
2013-02-05 02:50:00,9.5,4.6,29.91,SW,223,0.0,2.0,80,0.00,,,0.00,0,Wunderground v.1.15,2013-02-05 07:50:00,
2013-02-05 02:51:00,9.5,4.3,29.91,SW,224,0.0,2.0,79,0.00,,,0.00,0,Wunderground v.1.15,2013-02-05 07:51:00,
2013-02-05 02:53:00,9.5,4.6,29.91,WSW,246,0.0,2.0,80,0.00,,,0.00,0,Wunderground v.1.15,2013-02-05 07:53:00,
2013-02-05 02:56:00,9.5,4.3,29.90,WSW,256,0.0,2.0,79,0.00,,,0.00,0,Wunderground v.1.15,2013-02-05 07:56:00,
2013-02-05 02:58:00,9.5,4.6,29.91,WSW,256,0.0,2.0,80,0.00,,,0.00,0,Wunderground v.1.15,2013-02-05 07:58:00,
2013-02-05 03:01:00,9.5,4.3,29.91,WSW,257,0.0,2.0,79,0.00,,,0.00,0,Wunderground v.1.15,2013-02-05 08:01:00,
2013-02-05 03:03:00,9.5,4.6,29.91,WSW,257,0.0,2.0,80,0.00,,,0.00,0,Wunderground v.1.15,2013-02-05 08:03:00,
2013-02-05 03:04:00,9.5,4.6,29.91,SSE,168,0.0,4.0,80,0.00,,,0.00,0,Wunderground v.1.15,2013-02-05 08:04:00,
2013-02-05 03:06:00,9.5,4.6,29.91,South,169,0.0,4.0,80,0.00,,,0.00,0,Wunderground v.1.15,2013-02-05 08:06:00,
2013-02-05 03:08:00,9.5,4.8,29.91,SSE,168,0.0,4.0,81,0.00,,,0.00,0,Wunderground v.1.15,2013-02-05 08:08:00,
2013-02-05 03:09:00,9.6,4.9,29.91,South,169,0.0,4.0,81,0.00,,,0.00,0,Wunderground v.1.15,2013-02-05 08:09:00,
2013-02-05 03:10:00,9.6,4.9,29.91,South,173,0.0,2.0,81,0.00,,,0.00,0,Wunderground v.1.15,2013-02-05 08:10:00,
2013-02-05 03:15:00,9.7,5.0,29.91,South,173,0.0,2.0,81,0.00,,,0.00,0,Wunderground v.1.15,2013-02-05 08:15:00,
2013-02-05 03:16:00,9.7,5.0,29.91,South,169,0.0,2.0,81,0.00,,,0.00,0,Wunderground v.1.15,2013-02-05 08:16:00,
2013-02-05 03:17:00,9.7,5.0,29.91,South,170,0.0,2.0,81,0.00,,,0.00,0,Wunderground v.1.15,2013-02-05 08:17:00,
2013-02-05 03:19:00,9.8,5.1,29.91,SSE,165,0.0,6.0,81,0.00,,,0.00,0,Wunderground v.1.15,2013-02-05 08:19:00,
2013-02-05 03:25:00,10.0,5.1,29.90,South,180,1.0,5.0,80,0.00,,,0.00,0,Wunderground v.1.15,2013-02-05 08:25:00,
2013-02-05 03:26:00,10.0,4.8,29.90,NE,44,1.0,5.0,79,0.00,,,0.00,0,Wunderground v.1.15,2013-02-05 08:26:00,
2013-02-05 03:28:00,10.0,4.8,29.90,SW,220,2.0,5.0,79,0.00,,,0.00,0,Wunderground v.1.15,2013-02-05 08:28:00,
2013-02-05 03:29:00,10.0,4.8,29.90,South,173,2.0,5.0,79,0.00,,,0.00,0,Wunderground v.1.15,2013-02-05 08:29:00,
2013-02-05 03:31:00,10.0,4.5,29.90,WSW,240,2.0,5.0,78,0.00,,,0.00,0,Wunderground v.1.15,2013-02-05 08:31:00,
2013-02-05 03:33:00,10.0,4.5,29.90,SSE,167,2.0,5.0,78,0.00,,,0.00,0,Wunderground v.1.15,2013-02-05 08:33:00,
2013-02-05 03:34:00,10.0,4.5,29.90,SSW,194,2.0,5.0,78,0.00,,,0.00,0,Wunderground v.1.15,2013-02-05 08:34:00,
2013-02-05 03:36:00,9.9,4.4,29.90,South,174,2.0,5.0,78,0.00,,,0.00,0,Wunderground v.1.15,2013-02-05 08:36:00,
2013-02-05 03:37:00,9.9,4.4,29.90,South,169,2.0,5.0,78,0.00,,,0.00,0,Wunderground v.1.15,2013-02-05 08:37:00,
2013-02-05 03:40:00,9.9,4.4,29.90,South,169,2.0,2.0,78,0.00,,,0.00,0,Wunderground v.1.15,2013-02-05 08:40:00,
2013-02-05 03:41:00,9.9,4.4,29.90,South,173,2.0,2.0,78,0.00,,,0.00,0,Wunderground v.1.15,2013-02-05 08:41:00,
2013-02-05 03:44:00,9.8,4.3,29.90,South,173,1.0,2.0,78,0.00,,,0.00,0,Wunderground v.1.15,2013-02-05 08:44:00,
2013-02-05 03:46:00,9.8,4.6,29.90,SSE,167,1.0,2.0,79,0.00,,,0.00,0,Wunderground v.1.15,2013-02-05 08:46:00,
2013-02-05 03:47:00,9.8,4.6,29.90,SSE,161,1.0,2.0,79,0.00,,,0.00,0,Wunderground v.1.15,2013-02-05 08:47:00,
2013-02-05 03:49:00,9.7,4.2,29.90,South,172,1.0,2.0,78,0.00,,,0.00,0,Wunderground v.1.15,2013-02-05 08:49:00,
2013-02-05 03:51:00,9.7,4.5,29.89,SE,140,1.0,2.0,79,0.00,,,0.00,0,Wunderground v.1.15,2013-02-05 08:51:00,
2013-02-05 03:55:00,9.7,4.5,29.89,SSE,148,1.0,2.0,79,0.00,,,0.00,0,Wunderground v.1.15,2013-02-05 08:55:00,
2013-02-05 03:56:00,9.7,4.5,29.89,SSE,167,1.0,2.0,79,0.00,,,0.00,0,Wunderground v.1.15,2013-02-05 08:56:00,
2013-02-05 03:57:00,9.6,4.4,29.89,SSE,166,1.0,2.0,79,0.00,,,0.00,0,Wunderground v.1.15,2013-02-05 08:57:00,
2013-02-05 04:00:00,9.6,4.4,29.89,SSE,168,0.0,2.0,79,0.00,,,0.00,0,Wunderground v.1.15,2013-02-05 09:00:00,
2013-02-05 04:03:00,9.5,4.3,29.89,South,173,0.0,2.0,79,0.00,,,0.00,0,Wunderground v.1.15,2013-02-05 09:03:00,
2013-02-05 04:05:00,9.4,3.9,29.89,South,173,0.0,2.0,78,0.00,,,0.00,0,Wunderground v.1.15,2013-02-05 09:05:00,
2013-02-05 04:07:00,9.3,3.8,29.89,South,173,0.0,2.0,78,0.00,,,0.00,0,Wunderground v.1.15,2013-02-05 09:07:00,
2013-02-05 04:10:00,9.1,3.6,29.89,South,173,0.0,2.0,78,0.00,,,0.00,0,Wunderground v.1.15,2013-02-05 09:10:00,
2013-02-05 04:11:00,9.1,3.6,29.88,South,173,0.0,2.0,78,0.00,,,0.00,0,Wunderground v.1.15,2013-02-05 09:11:00,
2013-02-05 04:13:00,9.0,3.5,29.88,South,173,0.0,2.0,78,0.00,,,0.00,0,Wunderground v.1.15,2013-02-05 09:13:00,
2013-02-05 04:14:00,9.0,3.5,29.89,South,173,0.0,2.0,78,0.00,,,0.00,0,Wunderground v.1.15,2013-02-05 09:14:00,
2013-02-05 04:18:00,8.8,3.3,29.89,South,173,0.0,2.0,78,0.00,,,0.00,0,Wunderground v.1.15,2013-02-05 09:18:00,
2013-02-05 04:19:00,8.7,3.2,29.88,South,173,0.0,2.0,78,0.00,,,0.00,0,Wunderground v.1.15,2013-02-05 09:19:00,
2013-02-05 04:20:00,8.7,3.2,29.89,South,173,0.0,2.0,78,0.00,,,0.00,0,Wunderground v.1.15,2013-02-05 09:20:00,
2013-02-05 04:21:00,8.6,3.1,29.88,South,173,0.0,2.0,78,0.00,,,0.00,0,Wunderground v.1.15,2013-02-05 09:21:00,
2013-02-05 04:26:00,8.4,3.2,29.88,South,173,0.0,2.0,79,0.00,,,0.00,0,Wunderground v.1.15,2013-02-05 09:26:00,
2013-02-05 04:27:00,8.4,3.2,29.88,South,173,0.0,2.0,79,0.00,,,0.00,0,Wunderground v.1.15,2013-02-05 09:27:00,
2013-02-05 04:28:00,8.4,3.2,29.88,South,173,0.0,2.0,79,0.00,,,0.00,0,Wunderground v.1.15,2013-02-05 09:28:00,
2013-02-05 04:32:00,8.2,3.0,29.89,South,173,0.0,2.0,79,0.00,,,0.00,0,Wunderground v.1.15,2013-02-05 09:32:00,
2013-02-05 04:33:00,8.2,3.0,29.89,South,173,0.0,2.0,79,0.00,,,0.00,0,Wunderground v.1.15,2013-02-05 09:33:00,
2013-02-05 04:35:00,8.1,2.9,29.89,South,173,0.0,2.0,79,0.00,,,0.00,0,Wunderground v.1.15,2013-02-05 09:35:00,
2013-02-05 04:37:00,8.1,3.2,29.89,South,169,0.0,2.0,80,0.00,,,0.00,0,Wunderground v.1.15,2013-02-05 09:37:00,
2013-02-05 04:40:00,8.0,3.1,29.89,South,175,0.0,2.0,80,0.00,,,0.00,0,Wunderground v.1.15,2013-02-05 09:40:00,
2013-02-05 04:41:00,8.1,3.2,29.88,South,175,0.0,2.0,80,0.00,,,0.00,0,Wunderground v.1.15,2013-02-05 09:41:00,
2013-02-05 04:43:00,8.0,3.4,29.88,South,175,0.0,2.0,81,0.00,,,0.00,0,Wunderground v.1.15,2013-02-05 09:43:00,
2013-02-05 04:46:00,8.1,3.5,29.88,South,175,0.0,2.0,81,0.00,,,0.00,0,Wunderground v.1.15,2013-02-05 09:46:00,
2013-02-05 04:47:00,8.0,3.4,29.89,South,175,0.0,2.0,81,0.00,,,0.00,0,Wunderground v.1.15,2013-02-05 09:47:00,
2013-02-05 04:51:00,8.0,3.4,29.89,South,175,0.0,2.0,81,0.00,,,0.00,0,Wunderground v.1.15,2013-02-05 09:51:00,
2013-02-05 04:52:00,8.0,3.4,29.89,South,175,0.0,2.0,81,0.00,,,0.00,0,Wunderground v.1.15,2013-02-05 09:52:00,
2013-02-05 04:54:00,8.0,3.4,29.89,South,175,0.0,2.0,81,0.00,,,0.00,0,Wunderground v.1.15,2013-02-05 09:54:00,
2013-02-05 04:55:00,8.0,3.4,29.89,South,175,0.0,2.0,81,0.00,,,0.00,0,Wunderground v.1.15,2013-02-05 09:55:00,
2013-02-05 04:59:00,8.0,3.6,29.89,South,175,0.0,2.0,82,0.00,,,0.00,0,Wunderground v.1.15,2013-02-05 09:59:00,
2013-02-05 05:00:00,8.0,3.6,29.89,South,175,0.0,2.0,82,0.00,,,0.00,0,Wunderground v.1.15,2013-02-05 10:00:00,
2013-02-05 05:02:00,8.0,3.6,29.89,South,175,0.0,2.0,82,0.00,,,0.00,0,Wunderground v.1.15,2013-02-05 10:02:00,
2013-02-05 05:06:00,8.0,3.6,29.89,South,175,0.0,2.0,82,0.00,,,0.00,0,Wunderground v.1.15,2013-02-05 10:06:00,
2013-02-05 05:07:00,8.0,3.6,29.89,South,175,0.0,2.0,82,0.00,,,0.00,0,Wunderground v.1.15,2013-02-05 10:07:00,
2013-02-05 05:10:00,8.0,3.6,29.89,South,175,0.0,2.0,82,0.00,,,0.00,0,Wunderground v.1.15,2013-02-05 10:10:00,
2013-02-05 05:11:00,8.0,3.6,29.88,South,175,0.0,2.0,82,0.00,,,0.00,0,Wunderground v.1.15,2013-02-05 10:11:00,
2013-02-05 05:12:00,8.0,3.6,29.89,South,175,0.0,2.0,82,0.00,,,0.00,0,Wunderground v.1.15,2013-02-05 10:12:00,
2013-02-05 05:14:00,8.0,3.6,29.89,South,175,0.0,2.0,82,0.00,,,0.00,0,Wunderground v.1.15,2013-02-05 10:14:00,
2013-02-05 05:16:00,8.0,3.6,29.88,South,175,0.0,2.0,82,0.00,,,0.00,0,Wunderground v.1.15,2013-02-05 10:16:00,
2013-02-05 05:18:00,8.0,3.6,29.89,South,175,0.0,2.0,82,0.00,,,0.00,0,Wunderground v.1.15,2013-02-05 10:18:00,
2013-02-05 05:19:00,8.0,3.6,29.89,South,175,0.0,2.0,82,0.00,,,0.00,0,Wunderground v.1.15,2013-02-05 10:19:00,
2013-02-05 05:20:00,8.0,3.6,29.89,South,175,0.0,2.0,82,0.00,,,0.00,0,Wunderground v.1.15,2013-02-05 10:20:00,
2013-02-05 05:23:00,8.1,3.7,29.89,South,175,0.0,2.0,82,0.00,,,0.00,0,Wunderground v.1.15,2013-02-05 10:23:00,
2013-02-05 05:24:00,8.1,3.7,29.89,South,175,0.0,2.0,82,0.00,,,0.00,0,Wunderground v.1.15,2013-02-05 10:24:00,
2013-02-05 05:25:00,8.1,3.7,29.89,South,175,0.0,2.0,82,0.00,,,0.00,0,Wunderground v.1.15,2013-02-05 10:25:00,
2013-02-05 05:30:00,8.2,3.8,29.88,South,175,0.0,2.0,82,0.00,,,0.00,0,Wunderground v.1.15,2013-02-05 10:30:00,
2013-02-05 05:31:00,8.3,3.9,29.88,South,175,0.0,2.0,82,0.00,,,0.00,0,Wunderground v.1.15,2013-02-05 10:31:00,
2013-02-05 05:32:00,8.3,3.9,29.88,South,175,0.0,2.0,82,0.00,,,0.00,0,Wunderground v.1.15,2013-02-05 10:32:00,
2013-02-05 05:34:00,8.3,3.7,29.88,South,171,0.0,2.0,81,0.00,,,0.00,0,Wunderground v.1.15,2013-02-05 10:34:00,
2013-02-05 05:38:00,8.4,3.8,29.89,South,171,0.0,2.0,81,0.00,,,0.00,0,Wunderground v.1.15,2013-02-05 10:38:00,
2013-02-05 05:40:00,8.5,3.9,29.89,South,171,0.0,2.0,81,0.00,,,0.00,0,Wunderground v.1.15,2013-02-05 10:40:00,
2013-02-05 05:44:00,8.5,3.9,29.88,South,171,0.0,2.0,81,0.00,,,0.00,0,Wunderground v.1.15,2013-02-05 10:44:00,
2013-02-05 05:45:00,8.5,3.9,29.88,South,171,0.0,2.0,81,0.00,,,0.00,0,Wunderground v.1.15,2013-02-05 10:45:00,
2013-02-05 05:46:00,8.5,3.9,29.88,South,171,0.0,2.0,81,0.00,,,0.00,0,Wunderground v.1.15,2013-02-05 10:46:00,
2013-02-05 05:49:00,8.6,3.7,29.87,South,171,0.0,2.0,80,0.00,,,0.00,0,Wunderground v.1.15,2013-02-05 10:49:00,
2013-02-05 05:52:00,8.6,3.7,29.87,South,171,0.0,2.0,80,0.00,,,0.00,0,Wunderground v.1.15,2013-02-05 10:52:00,
2013-02-05 05:55:00,8.6,3.7,29.87,South,171,0.0,2.0,80,0.00,,,0.00,0,Wunderground v.1.15,2013-02-05 10:55:00,
2013-02-05 05:56:00,8.6,3.7,29.87,South,171,0.0,2.0,80,0.00,,,0.00,0,Wunderground v.1.15,2013-02-05 10:56:00,
2013-02-05 05:57:00,8.6,3.7,29.87,South,171,0.0,2.0,80,0.00,,,0.00,0,Wunderground v.1.15,2013-02-05 10:57:00,
2013-02-05 06:01:00,8.6,3.7,29.87,South,171,0.0,0.0,80,0.00,,,0.00,0,Wunderground v.1.15,2013-02-05 11:01:00,
2013-02-05 06:04:00,8.5,3.9,29.87,North,355,0.0,1.0,81,0.00,,,0.00,0,Wunderground v.1.15,2013-02-05 11:04:00,
2013-02-05 06:08:00,8.4,3.8,29.86,North,351,0.0,1.0,81,0.00,,,0.00,0,Wunderground v.1.15,2013-02-05 11:08:00,
2013-02-05 06:11:00,8.3,3.4,29.86,North,351,0.0,0.0,80,0.00,,,0.00,0,Wunderground v.1.15,2013-02-05 11:11:00,
2013-02-05 06:12:00,8.3,3.7,29.86,North,351,0.0,0.0,81,0.00,,,0.00,0,Wunderground v.1.15,2013-02-05 11:12:00,
2013-02-05 06:14:00,8.2,3.6,29.86,North,351,0.0,0.0,81,0.00,,,0.00,0,Wunderground v.1.15,2013-02-05 11:14:00,
2013-02-05 06:16:00,8.1,3.5,29.86,North,351,0.0,0.0,81,0.00,,,0.00,0,Wunderground v.1.15,2013-02-05 11:16:00,
2013-02-05 06:17:00,8.0,3.4,29.86,North,351,0.0,0.0,81,0.00,,,0.00,0,Wunderground v.1.15,2013-02-05 11:17:00,
2013-02-05 06:19:00,7.9,3.3,29.86,North,351,0.0,0.0,81,0.00,,,0.00,0,Wunderground v.1.15,2013-02-05 11:19:00,
2013-02-05 06:21:00,7.8,3.2,29.86,North,351,0.0,0.0,81,0.00,,,0.00,0,Wunderground v.1.15,2013-02-05 11:21:00,
2013-02-05 06:25:00,7.7,3.4,29.86,North,351,0.0,0.0,82,0.00,,,0.00,0,Wunderground v.1.15,2013-02-05 11:25:00,
2013-02-05 06:26:00,7.7,3.4,29.86,North,351,0.0,0.0,82,0.00,,,0.00,0,Wunderground v.1.15,2013-02-05 11:26:00,
2013-02-05 06:28:00,7.6,3.3,29.86,North,351,0.0,0.0,82,0.00,,,0.00,0,Wunderground v.1.15,2013-02-05 11:28:00,
2013-02-05 06:32:00,7.4,3.1,29.85,North,351,0.0,0.0,82,0.00,,,0.00,0,Wunderground v.1.15,2013-02-05 11:32:00,
2013-02-05 06:33:00,7.4,3.1,29.85,North,351,0.0,0.0,82,0.00,,,0.00,0,Wunderground v.1.15,2013-02-05 11:33:00,
2013-02-05 06:34:00,7.3,3.0,29.85,North,351,0.0,0.0,82,0.00,,,0.00,0,Wunderground v.1.15,2013-02-05 11:34:00,
2013-02-05 06:39:00,6.9,2.6,29.85,North,351,0.0,0.0,82,0.00,,,0.00,0,Wunderground v.1.15,2013-02-05 11:39:00,
2013-02-05 06:40:00,6.9,2.6,29.85,North,351,0.0,0.0,82,0.00,,,0.00,0,Wunderground v.1.15,2013-02-05 11:40:00,
2013-02-05 06:43:00,6.7,2.4,29.85,North,351,0.0,0.0,82,0.00,,,0.00,0,Wunderground v.1.15,2013-02-05 11:43:00,
2013-02-05 06:45:00,6.6,2.3,29.85,North,351,0.0,0.0,82,0.00,,,0.00,0,Wunderground v.1.15,2013-02-05 11:45:00,
2013-02-05 06:48:00,6.6,2.5,29.85,North,351,0.0,2.0,83,0.00,,,0.00,0,Wunderground v.1.15,2013-02-05 11:48:00,
2013-02-05 06:50:00,6.6,2.5,29.85,North,355,0.0,0.0,83,0.00,,,0.00,0,Wunderground v.1.15,2013-02-05 11:50:00,
2013-02-05 06:52:00,6.5,2.4,29.85,North,355,1.0,1.0,83,0.00,,,0.00,0,Wunderground v.1.15,2013-02-05 11:52:00,
2013-02-05 06:54:00,6.5,2.4,29.85,North,355,1.0,1.0,83,0.00,,,0.00,0,Wunderground v.1.15,2013-02-05 11:54:00,
2013-02-05 06:57:00,6.4,2.1,29.85,North,355,1.0,1.0,82,0.00,,,0.00,0,Wunderground v.1.15,2013-02-05 11:57:00,
2013-02-05 06:58:00,6.4,2.1,29.85,North,355,0.0,1.0,82,0.00,,,0.00,0,Wunderground v.1.15,2013-02-05 11:58:00,
2013-02-05 06:59:00,6.4,2.1,29.85,North,355,0.0,1.0,82,0.00,,,0.00,0,Wunderground v.1.15,2013-02-05 11:59:00,
2013-02-05 07:00:00,6.3,2.0,29.85,North,355,0.0,0.0,82,0.00,,,0.00,0,Wunderground v.1.15,2013-02-05 12:00:00,
2013-02-05 07:04:00,6.3,2.0,29.85,North,355,0.0,2.0,82,0.00,,,0.00,0,Wunderground v.1.15,2013-02-05 12:04:00,
2013-02-05 07:05:00,6.3,2.0,29.85,North,355,0.0,2.0,82,0.00,,,0.00,0,Wunderground v.1.15,2013-02-05 12:05:00,
2013-02-05 07:06:00,6.3,2.0,29.85,North,355,0.0,2.0,82,0.00,,,0.00,0,Wunderground v.1.15,2013-02-05 12:06:00,
2013-02-05 07:07:00,6.3,2.0,29.85,North,355,0.0,2.0,82,0.00,,,0.00,0,Wunderground v.1.15,2013-02-05 12:07:00,
2013-02-05 07:11:00,6.2,2.1,29.85,North,355,0.0,2.0,83,0.00,,,0.00,0,Wunderground v.1.15,2013-02-05 12:11:00,
2013-02-05 07:12:00,6.2,2.1,29.85,North,355,0.0,2.0,83,0.00,,,0.00,0,Wunderground v.1.15,2013-02-05 12:12:00,
2013-02-05 07:15:00,6.3,2.2,29.85,North,355,0.0,2.0,83,0.00,,,0.00,0,Wunderground v.1.15,2013-02-05 12:15:00,
2013-02-05 07:16:00,6.3,2.2,29.85,North,355,0.0,2.0,83,0.00,,,0.00,0,Wunderground v.1.15,2013-02-05 12:16:00,
2013-02-05 07:18:00,6.3,2.2,29.85,North,355,0.0,2.0,83,0.00,,,0.00,0,Wunderground v.1.15,2013-02-05 12:18:00,
2013-02-05 07:19:00,6.3,2.2,29.85,North,355,0.0,2.0,83,0.00,,,0.00,0,Wunderground v.1.15,2013-02-05 12:19:00,
2013-02-05 07:21:00,6.3,2.2,29.85,North,355,0.0,2.0,83,0.00,,,0.00,0,Wunderground v.1.15,2013-02-05 12:21:00,
2013-02-05 07:23:00,6.3,2.2,29.85,North,355,0.0,2.0,83,0.00,,,0.00,0,Wunderground v.1.15,2013-02-05 12:23:00,
2013-02-05 07:27:00,6.3,2.2,29.86,North,355,0.0,2.0,83,0.00,,,0.00,0,Wunderground v.1.15,2013-02-05 12:27:00,
2013-02-05 07:28:00,6.3,2.2,29.86,North,355,0.0,2.0,83,0.00,,,0.00,0,Wunderground v.1.15,2013-02-05 12:28:00,
2013-02-05 07:29:00,6.3,2.2,29.86,North,355,0.0,2.0,83,0.00,,,0.00,0,Wunderground v.1.15,2013-02-05 12:29:00,
2013-02-05 07:30:00,6.3,2.2,29.86,North,355,0.0,2.0,83,0.00,,,0.00,0,Wunderground v.1.15,2013-02-05 12:30:00,
2013-02-05 07:32:00,6.3,2.2,29.86,North,355,0.0,2.0,83,0.00,,,0.00,0,Wunderground v.1.15,2013-02-05 12:32:00,
2013-02-05 07:36:00,6.3,2.2,29.86,North,355,0.0,2.0,83,0.00,,,0.00,0,Wunderground v.1.15,2013-02-05 12:36:00,
2013-02-05 07:38:00,6.3,2.5,29.86,North,355,0.0,2.0,84,0.00,,,0.00,0,Wunderground v.1.15,2013-02-05 12:38:00,
2013-02-05 07:40:00,6.3,2.5,29.86,North,355,0.0,2.0,84,0.00,,,0.00,0,Wunderground v.1.15,2013-02-05 12:40:00,
2013-02-05 07:41:00,6.3,2.5,29.86,North,355,0.0,2.0,84,0.00,,,0.00,0,Wunderground v.1.15,2013-02-05 12:41:00,
2013-02-05 07:46:00,6.4,2.6,29.86,North,355,0.0,2.0,84,0.00,,,0.00,0,Wunderground v.1.15,2013-02-05 12:46:00,
2013-02-05 07:47:00,6.4,2.6,29.86,North,355,0.0,2.0,84,0.00,,,0.00,0,Wunderground v.1.15,2013-02-05 12:47:00,
2013-02-05 07:49:00,6.5,2.7,29.85,North,355,0.0,2.0,84,0.00,,,0.00,0,Wunderground v.1.15,2013-02-05 12:49:00,
2013-02-05 07:51:00,6.5,3.0,29.85,North,355,0.0,2.0,85,0.00,,,0.00,0,Wunderground v.1.15,2013-02-05 12:51:00,
2013-02-05 07:54:00,6.6,3.0,29.85,North,355,0.0,2.0,85,0.00,,,0.00,0,Wunderground v.1.15,2013-02-05 12:54:00,
2013-02-05 07:55:00,6.5,3.0,29.85,North,355,0.0,2.0,85,0.00,,,0.00,0,Wunderground v.1.15,2013-02-05 12:55:00,
2013-02-05 07:57:00,6.6,3.0,29.85,North,355,0.0,2.0,85,0.00,,,0.00,0,Wunderground v.1.15,2013-02-05 12:57:00,
2013-02-05 07:58:00,6.6,3.0,29.85,North,355,0.0,2.0,85,0.00,,,0.00,0,Wunderground v.1.15,2013-02-05 12:58:00,
2013-02-05 08:00:00,6.6,3.0,29.85,North,355,0.0,2.0,85,0.00,,,0.00,0,Wunderground v.1.15,2013-02-05 13:00:00,
2013-02-05 08:01:00,6.7,3.1,29.86,North,355,0.0,2.0,85,0.00,,,0.00,0,Wunderground v.1.15,2013-02-05 13:01:00,
2013-02-05 08:03:00,6.7,3.1,29.85,North,355,0.0,2.0,85,0.00,,,0.00,0,Wunderground v.1.15,2013-02-05 13:03:00,
2013-02-05 08:06:00,6.7,3.1,29.85,North,355,0.0,2.0,85,0.00,,,0.00,0,Wunderground v.1.15,2013-02-05 13:06:00,
2013-02-05 08:07:00,6.7,3.1,29.85,North,355,0.0,2.0,85,0.00,,,0.00,0,Wunderground v.1.15,2013-02-05 13:07:00,
2013-02-05 08:08:00,6.8,3.5,29.85,North,355,0.0,2.0,86,0.00,,,0.00,0,Wunderground v.1.15,2013-02-05 13:08:00,
2013-02-05 08:12:00,6.9,3.6,29.85,North,355,0.0,2.0,86,0.00,,,0.00,0,Wunderground v.1.15,2013-02-05 13:12:00,
2013-02-05 08:13:00,6.8,3.5,29.85,North,355,0.0,2.0,86,0.00,,,0.00,0,Wunderground v.1.15,2013-02-05 13:13:00,
2013-02-05 08:14:00,6.9,3.6,29.85,North,355,0.0,2.0,86,0.00,,,0.00,0,Wunderground v.1.15,2013-02-05 13:14:00,
2013-02-05 08:18:00,7.0,3.7,29.85,North,355,0.0,2.0,86,0.00,,,0.00,0,Wunderground v.1.15,2013-02-05 13:18:00,
2013-02-05 08:19:00,7.0,3.7,29.85,North,355,0.0,2.0,86,0.00,,,0.00,0,Wunderground v.1.15,2013-02-05 13:19:00,
2013-02-05 08:21:00,7.1,4.0,29.85,North,355,0.0,2.0,87,0.00,,,0.00,0,Wunderground v.1.15,2013-02-05 13:21:00,
2013-02-05 08:24:00,7.2,4.1,29.85,North,355,0.0,2.0,87,0.00,,,0.00,0,Wunderground v.1.15,2013-02-05 13:24:00,
2013-02-05 08:25:00,7.2,4.1,29.85,North,355,0.0,2.0,87,0.00,,,0.00,5,Wunderground v.1.15,2013-02-05 13:25:00,
2013-02-05 08:26:00,7.3,4.2,29.85,North,355,0.0,2.0,87,0.00,,,0.00,5,Wunderground v.1.15,2013-02-05 13:26:00,
2013-02-05 08:29:00,7.4,4.3,29.85,North,355,0.0,2.0,87,0.00,,,0.00,5,Wunderground v.1.15,2013-02-05 13:29:00,
2013-02-05 08:30:00,7.4,4.3,29.85,North,355,0.0,2.0,87,0.00,,,0.00,0,Wunderground v.1.15,2013-02-05 13:30:00,
2013-02-05 08:33:00,7.6,4.5,29.84,North,355,0.0,2.0,87,0.00,,,0.00,0,Wunderground v.1.15,2013-02-05 13:33:00,
2013-02-05 08:36:00,7.7,4.6,29.84,North,355,0.0,2.0,87,0.00,,,0.00,0,Wunderground v.1.15,2013-02-05 13:36:00,
2013-02-05 08:37:00,7.7,4.6,29.84,North,355,0.0,2.0,87,0.00,,,0.00,0,Wunderground v.1.15,2013-02-05 13:37:00,
2013-02-05 08:38:00,7.8,4.7,29.84,North,355,0.0,2.0,87,0.00,,,0.00,5,Wunderground v.1.15,2013-02-05 13:38:00,
2013-02-05 08:41:00,7.9,4.8,29.84,North,360,0.0,2.0,87,0.00,,,0.00,5,Wunderground v.1.15,2013-02-05 13:41:00,
2013-02-05 08:43:00,7.9,4.8,29.84,North,360,0.0,2.0,87,0.00,,,0.00,5,Wunderground v.1.15,2013-02-05 13:43:00,
2013-02-05 08:48:00,8.1,5.3,29.84,North,360,0.0,2.0,88,0.00,,,0.00,7,Wunderground v.1.15,2013-02-05 13:48:00,
2013-02-05 08:49:00,8.1,5.3,29.84,North,360,0.0,2.0,88,0.00,,,0.00,7,Wunderground v.1.15,2013-02-05 13:49:00,
2013-02-05 08:53:00,8.2,5.4,29.84,North,360,0.0,2.0,88,0.00,,,0.00,9,Wunderground v.1.15,2013-02-05 13:53:00,
2013-02-05 08:54:00,8.2,5.4,29.84,North,360,0.0,2.0,88,0.00,,,0.00,11,Wunderground v.1.15,2013-02-05 13:54:00,
2013-02-05 08:55:00,8.2,5.4,29.84,North,360,0.0,2.0,88,0.00,,,0.00,12,Wunderground v.1.15,2013-02-05 13:55:00,
2013-02-05 08:56:00,8.2,5.4,29.84,North,360,0.0,2.0,88,0.00,,,0.00,12,Wunderground v.1.15,2013-02-05 13:56:00,
2013-02-05 09:00:00,8.3,5.5,29.83,North,360,0.0,2.0,88,0.00,,,0.00,7,Wunderground v.1.15,2013-02-05 14:00:00,
2013-02-05 09:01:00,8.3,5.5,29.83,North,360,0.0,3.0,88,0.00,,,0.00,7,Wunderground v.1.15,2013-02-05 14:01:00,
2013-02-05 09:05:00,8.2,5.4,29.84,North,5,1.0,3.0,88,0.00,,,0.00,11,Wunderground v.1.15,2013-02-05 14:05:00,
2013-02-05 09:07:00,8.2,5.1,29.84,North,5,1.0,3.0,87,0.00,,,0.00,12,Wunderground v.1.15,2013-02-05 14:07:00,
2013-02-05 09:08:00,8.2,5.1,29.84,North,5,1.0,3.0,87,0.00,,,0.00,16,Wunderground v.1.15,2013-02-05 14:08:00,
2013-02-05 09:09:00,8.2,5.1,29.84,North,5,1.0,3.0,87,0.00,,,0.00,18,Wunderground v.1.15,2013-02-05 14:09:00,
2013-02-05 09:12:00,8.2,5.1,29.84,North,5,1.0,2.0,87,0.00,,,0.00,16,Wunderground v.1.15,2013-02-05 14:12:00,
2013-02-05 09:14:00,8.3,5.5,29.83,North,5,1.0,2.0,88,0.00,,,0.00,14,Wunderground v.1.15,2013-02-05 14:14:00,
2013-02-05 09:16:00,8.3,5.5,29.83,North,5,1.0,2.0,88,0.00,,,0.00,16,Wunderground v.1.15,2013-02-05 14:16:00,
2013-02-05 09:18:00,8.3,5.5,29.83,North,355,1.0,3.0,88,0.00,,,0.00,18,Wunderground v.1.15,2013-02-05 14:18:00,
2013-02-05 09:20:00,8.3,5.5,29.83,North,355,1.0,1.0,88,0.00,,,0.00,18,Wunderground v.1.15,2013-02-05 14:20:00,
2013-02-05 09:21:00,8.3,5.5,29.83,North,355,1.0,2.0,88,0.00,,,0.00,18,Wunderground v.1.15,2013-02-05 14:21:00,
2013-02-05 09:23:00,8.3,5.5,29.83,North,355,1.0,2.0,88,0.00,,,0.00,18,Wunderground v.1.15,2013-02-05 14:23:00,
2013-02-05 09:28:00,8.4,5.6,29.83,North,355,1.0,2.0,88,0.00,,,0.00,21,Wunderground v.1.15,2013-02-05 14:28:00,
2013-02-05 09:29:00,8.5,5.7,29.83,North,355,1.0,2.0,88,0.00,,,0.00,23,Wunderground v.1.15,2013-02-05 14:29:00,
2013-02-05 09:31:00,8.5,5.7,29.83,North,355,1.0,2.0,88,0.00,,,0.00,23,Wunderground v.1.15,2013-02-05 14:31:00,
2013-02-05 09:32:00,8.5,5.7,29.83,North,355,1.0,2.0,88,0.00,,,0.00,23,Wunderground v.1.15,2013-02-05 14:32:00,
2013-02-05 09:35:00,8.6,5.8,29.83,North,355,1.0,2.0,88,0.00,,,0.00,23,Wunderground v.1.15,2013-02-05 14:35:00,
2013-02-05 09:37:00,8.7,5.9,29.83,North,355,1.0,2.0,88,0.00,,,0.00,21,Wunderground v.1.15,2013-02-05 14:37:00,
2013-02-05 09:40:00,8.9,6.1,29.83,North,355,0.0,2.0,88,0.00,,,0.00,23,Wunderground v.1.15,2013-02-05 14:40:00,
2013-02-05 09:41:00,8.9,6.1,29.83,North,355,0.0,2.0,88,0.00,,,0.00,25,Wunderground v.1.15,2013-02-05 14:41:00,
2013-02-05 09:45:00,9.1,6.3,29.83,North,355,1.0,2.0,88,0.00,,,0.00,35,Wunderground v.1.15,2013-02-05 14:45:00,
2013-02-05 09:46:00,9.1,6.3,29.82,North,355,1.0,2.0,88,0.00,,,0.00,35,Wunderground v.1.15,2013-02-05 14:46:00,
2013-02-05 09:47:00,9.1,6.3,29.82,North,355,1.0,2.0,88,0.00,,,0.00,33,Wunderground v.1.15,2013-02-05 14:47:00,
2013-02-05 09:50:00,9.3,6.5,29.82,North,355,1.0,2.0,88,0.00,,,0.00,21,Wunderground v.1.15,2013-02-05 14:50:00,
2013-02-05 09:51:00,9.3,6.5,29.82,North,355,1.0,2.0,88,0.00,,,0.00,19,Wunderground v.1.15,2013-02-05 14:51:00,
2013-02-05 09:52:00,9.3,6.5,29.82,NNW,346,1.0,2.0,88,0.00,,,0.00,19,Wunderground v.1.15,2013-02-05 14:52:00,
2013-02-05 09:57:00,9.5,6.7,29.82,NNW,346,0.0,2.0,88,0.00,,,0.00,21,Wunderground v.1.15,2013-02-05 14:57:00,
2013-02-05 09:58:00,9.5,6.7,29.82,NNW,346,0.0,2.0,88,0.00,,,0.00,21,Wunderground v.1.15,2013-02-05 14:58:00,
2013-02-05 09:59:00,9.5,6.7,29.81,NNW,346,0.0,2.0,88,0.00,,,0.00,21,Wunderground v.1.15,2013-02-05 14:59:00,
2013-02-05 10:00:00,9.6,6.8,29.81,North,360,0.0,3.0,88,0.00,,,0.00,21,Wunderground v.1.15,2013-02-05 15:00:00,
2013-02-05 10:03:00,9.6,6.8,29.81,North,360,0.0,3.0,88,0.00,,,0.00,19,Wunderground v.1.15,2013-02-05 15:03:00,
2013-02-05 10:06:00,9.7,6.9,29.81,NNE,15,0.0,3.0,88,0.00,,,0.00,19,Wunderground v.1.15,2013-02-05 15:06:00,
2013-02-05 10:08:00,9.7,6.9,29.81,NNE,15,0.0,3.0,88,0.00,,,0.00,19,Wunderground v.1.15,2013-02-05 15:08:00,
2013-02-05 10:09:00,9.7,6.9,29.81,NNE,15,0.0,3.0,88,0.00,,,0.00,19,Wunderground v.1.15,2013-02-05 15:09:00,
2013-02-05 10:15:00,9.7,6.9,29.81,NNW,347,0.0,2.0,88,0.00,,,0.00,19,Wunderground v.1.15,2013-02-05 15:15:00,
2013-02-05 10:16:00,9.8,7.0,29.81,NNW,347,0.0,2.0,88,0.00,,,0.00,21,Wunderground v.1.15,2013-02-05 15:16:00,
2013-02-05 10:17:00,9.8,7.0,29.82,NNW,347,0.0,2.0,88,0.00,,,0.00,23,Wunderground v.1.15,2013-02-05 15:17:00,
2013-02-05 10:18:00,9.8,7.0,29.82,NNW,347,0.0,2.0,88,0.00,,,0.00,23,Wunderground v.1.15,2013-02-05 15:18:00,
2013-02-05 10:22:00,9.9,7.1,29.81,NNW,347,0.0,2.0,88,0.00,,,0.00,26,Wunderground v.1.15,2013-02-05 15:22:00,
2013-02-05 10:24:00,9.9,7.1,29.81,NNW,347,0.0,2.0,88,0.00,,,0.00,26,Wunderground v.1.15,2013-02-05 15:24:00,
2013-02-05 10:25:00,10.0,7.2,29.81,NNW,347,0.0,2.0,88,0.00,,,0.00,26,Wunderground v.1.15,2013-02-05 15:25:00,
2013-02-05 10:26:00,10.0,7.2,29.81,NNW,347,0.0,2.0,88,0.00,,,0.00,28,Wunderground v.1.15,2013-02-05 15:26:00,
2013-02-05 10:27:00,10.0,7.2,29.81,NNW,347,0.0,2.0,88,0.00,,,0.00,30,Wunderground v.1.15,2013-02-05 15:27:00,
2013-02-05 10:32:00,10.2,7.4,29.81,NNW,347,0.0,2.0,88,0.00,,,0.00,32,Wunderground v.1.15,2013-02-05 15:32:00,
2013-02-05 10:33:00,10.2,7.4,29.81,NNW,347,0.0,2.0,88,0.00,,,0.00,32,Wunderground v.1.15,2013-02-05 15:33:00,
2013-02-05 10:34:00,10.2,7.4,29.81,NNW,347,0.0,2.0,88,0.00,,,0.00,32,Wunderground v.1.15,2013-02-05 15:34:00,
2013-02-05 10:35:00,10.3,7.5,29.81,NNW,347,0.0,2.0,88,0.00,,,0.00,32,Wunderground v.1.15,2013-02-05 15:35:00,
2013-02-05 10:40:00,10.5,7.6,29.80,NNW,347,0.0,2.0,88,0.00,,,0.00,32,Wunderground v.1.15,2013-02-05 15:40:00,
2013-02-05 10:41:00,10.5,7.6,29.80,NNW,347,0.0,2.0,88,0.00,,,0.00,32,Wunderground v.1.15,2013-02-05 15:41:00,
2013-02-05 10:45:00,10.7,7.8,29.80,NNW,347,0.0,2.0,88,0.00,,,0.00,33,Wunderground v.1.15,2013-02-05 15:45:00,
2013-02-05 10:47:00,10.7,7.8,29.80,NNW,347,0.0,2.0,88,0.00,,,0.00,37,Wunderground v.1.15,2013-02-05 15:47:00,
2013-02-05 10:50:00,10.8,7.9,29.80,NNW,348,0.0,2.0,88,0.00,,,0.00,40,Wunderground v.1.15,2013-02-05 15:50:00,
2013-02-05 10:51:00,10.8,7.9,29.80,NNW,348,0.0,2.0,88,0.00,,,0.00,37,Wunderground v.1.15,2013-02-05 15:51:00,
2013-02-05 10:53:00,10.9,8.0,29.80,NNW,348,0.0,2.0,88,0.00,,,0.00,37,Wunderground v.1.15,2013-02-05 15:53:00,
2013-02-05 10:56:00,11.0,8.1,29.80,NNW,348,0.0,2.0,88,0.00,,,0.00,40,Wunderground v.1.15,2013-02-05 15:56:00,
2013-02-05 10:57:00,11.0,8.1,29.80,NNW,348,0.0,2.0,88,0.00,,,0.00,40,Wunderground v.1.15,2013-02-05 15:57:00,
2013-02-05 10:59:00,11.1,8.2,29.80,NNW,348,0.0,2.0,88,0.00,,,0.00,40,Wunderground v.1.15,2013-02-05 15:59:00,
2013-02-05 11:03:00,11.2,8.3,29.80,NNW,348,0.0,2.0,88,0.00,,,0.00,39,Wunderground v.1.15,2013-02-05 16:03:00,
2013-02-05 11:04:00,11.3,8.4,29.80,NNW,348,0.0,2.0,88,0.00,,,0.00,39,Wunderground v.1.15,2013-02-05 16:04:00,
2013-02-05 11:05:00,11.4,8.5,29.80,North,5,0.0,2.0,88,0.00,,,0.00,39,Wunderground v.1.15,2013-02-05 16:05:00,
2013-02-05 11:06:00,11.4,8.5,29.79,North,5,1.0,2.0,88,0.00,,,0.00,39,Wunderground v.1.15,2013-02-05 16:06:00,
2013-02-05 11:09:00,11.5,8.6,29.79,North,5,0.0,2.0,88,0.00,,,0.00,39,Wunderground v.1.15,2013-02-05 16:09:00,
2013-02-05 11:10:00,11.6,8.7,29.79,North,9,0.0,2.0,88,0.00,,,0.00,40,Wunderground v.1.15,2013-02-05 16:10:00,
2013-02-05 11:11:00,11.6,8.7,29.79,North,9,1.0,2.0,88,0.00,,,0.00,40,Wunderground v.1.15,2013-02-05 16:11:00,
2013-02-05 11:15:00,11.7,8.8,29.79,North,9,0.0,2.0,88,0.00,,,0.00,40,Wunderground v.1.15,2013-02-05 16:15:00,
2013-02-05 11:16:00,11.8,8.9,29.79,North,11,0.0,2.0,88,0.00,,,0.00,40,Wunderground v.1.15,2013-02-05 16:16:00,
2013-02-05 11:17:00,11.8,8.9,29.79,North,11,0.0,2.0,88,0.00,,,0.00,42,Wunderground v.1.15,2013-02-05 16:17:00,
2013-02-05 11:20:00,11.9,9.0,29.79,North,5,0.0,2.0,88,0.00,,,0.00,42,Wunderground v.1.15,2013-02-05 16:20:00,
2013-02-05 11:22:00,11.9,8.8,29.79,North,5,0.0,2.0,87,0.00,,,0.00,42,Wunderground v.1.15,2013-02-05 16:22:00,
2013-02-05 11:23:00,11.9,8.8,29.78,North,5,0.0,2.0,87,0.00,,,0.00,42,Wunderground v.1.15,2013-02-05 16:23:00,
2013-02-05 11:28:00,12.1,9.0,29.78,North,5,1.0,2.0,87,0.00,,,0.00,40,Wunderground v.1.15,2013-02-05 16:28:00,
2013-02-05 11:29:00,12.1,9.0,29.78,North,5,1.0,2.0,87,0.00,,,0.00,39,Wunderground v.1.15,2013-02-05 16:29:00,
2013-02-05 11:31:00,12.2,9.3,29.78,North,5,1.0,2.0,88,0.00,,,0.00,39,Wunderground v.1.15,2013-02-05 16:31:00,
2013-02-05 11:35:00,12.3,9.4,29.78,North,5,1.0,2.0,88,0.00,,,0.00,42,Wunderground v.1.15,2013-02-05 16:35:00,
2013-02-05 11:36:00,12.3,9.4,29.78,North,360,1.0,2.0,88,0.00,,,0.00,42,Wunderground v.1.15,2013-02-05 16:36:00,
2013-02-05 11:39:00,12.4,9.3,29.78,North,360,1.0,2.0,87,0.00,,,0.00,39,Wunderground v.1.15,2013-02-05 16:39:00,
2013-02-05 11:40:00,12.5,9.4,29.78,North,360,1.0,1.0,87,0.00,,,0.00,37,Wunderground v.1.15,2013-02-05 16:40:00,
2013-02-05 11:41:00,12.5,9.4,29.78,North,11,1.0,3.0,87,0.00,,,0.00,37,Wunderground v.1.15,2013-02-05 16:41:00,
2013-02-05 11:43:00,12.6,9.5,29.78,North,360,1.0,3.0,87,0.00,,,0.00,42,Wunderground v.1.15,2013-02-05 16:43:00,
2013-02-05 11:45:00,12.7,9.6,29.78,North,355,1.0,3.0,87,0.00,,,0.00,49,Wunderground v.1.15,2013-02-05 16:45:00,
2013-02-05 11:49:00,12.8,9.7,29.77,North,355,1.0,3.0,87,0.00,,,0.00,65,Wunderground v.1.15,2013-02-05 16:49:00,
2013-02-05 11:50:00,12.9,9.8,29.77,North,355,1.0,1.0,87,0.00,,,0.00,67,Wunderground v.1.15,2013-02-05 16:50:00,
2013-02-05 11:51:00,13.0,9.9,29.77,North,355,1.0,2.0,87,0.00,,,0.00,70,Wunderground v.1.15,2013-02-05 16:51:00,
2013-02-05 11:54:00,13.2,10.1,29.77,North,355,0.0,2.0,87,0.00,,,0.00,63,Wunderground v.1.15,2013-02-05 16:54:00,
2013-02-05 11:56:00,13.4,10.3,29.77,North,355,0.0,3.0,87,0.00,,,0.00,60,Wunderground v.1.15,2013-02-05 16:56:00,
2013-02-05 11:57:00,13.4,10.3,29.77,North,355,0.0,3.0,87,0.00,,,0.00,56,Wunderground v.1.15,2013-02-05 16:57:00,
2013-02-05 12:02:00,13.7,10.5,29.77,NNW,331,0.0,2.0,87,0.00,,,0.00,54,Wunderground v.1.15,2013-02-05 17:02:00,
2013-02-05 12:04:00,13.8,10.6,29.77,NNW,331,0.0,2.0,87,0.00,,,0.00,54,Wunderground v.1.15,2013-02-05 17:04:00,
2013-02-05 12:06:00,13.9,10.7,29.77,NNW,331,0.0,2.0,87,0.00,,,0.00,51,Wunderground v.1.15,2013-02-05 17:06:00,
2013-02-05 12:08:00,14.0,10.8,29.77,NNW,331,0.0,2.0,87,0.00,,,0.00,46,Wunderground v.1.15,2013-02-05 17:08:00,
2013-02-05 12:12:00,14.1,10.7,29.77,NNW,331,0.0,2.0,86,0.00,,,0.00,49,Wunderground v.1.15,2013-02-05 17:12:00,
2013-02-05 12:14:00,14.1,10.7,29.77,NNW,331,0.0,2.0,86,0.00,,,0.00,51,Wunderground v.1.15,2013-02-05 17:14:00,
2013-02-05 12:15:00,14.1,10.7,29.76,NNW,331,0.0,2.0,86,0.00,,,0.00,51,Wunderground v.1.15,2013-02-05 17:15:00,
2013-02-05 12:18:00,14.0,10.6,29.76,NNW,331,0.0,2.0,86,0.00,,,0.00,53,Wunderground v.1.15,2013-02-05 17:18:00,
2013-02-05 12:20:00,14.1,10.7,29.76,NNW,330,0.0,2.0,86,0.00,,,0.00,54,Wunderground v.1.15,2013-02-05 17:20:00,
2013-02-05 12:23:00,14.1,10.7,29.76,NNW,329,0.0,2.0,86,0.00,,,0.00,56,Wunderground v.1.15,2013-02-05 17:23:00,
2013-02-05 12:27:00,14.3,10.9,29.76,North,9,0.0,2.0,86,0.00,,,0.00,56,Wunderground v.1.15,2013-02-05 17:27:00,
2013-02-05 12:28:00,14.3,10.9,29.75,North,11,0.0,2.0,86,0.00,,,0.00,54,Wunderground v.1.15,2013-02-05 17:28:00,
2013-02-05 12:32:00,14.5,11.3,29.75,North,360,0.0,2.0,87,0.00,,,0.00,54,Wunderground v.1.15,2013-02-05 17:32:00,
2013-02-05 12:33:00,14.5,11.3,29.75,North,360,0.0,2.0,87,0.00,,,0.00,56,Wunderground v.1.15,2013-02-05 17:33:00,
2013-02-05 12:39:00,14.8,11.6,29.75,NNW,340,1.0,3.0,87,0.00,,,0.00,54,Wunderground v.1.15,2013-02-05 17:39:00,
2013-02-05 12:40:00,14.8,11.6,29.75,NNW,340,1.0,2.0,87,0.00,,,0.00,54,Wunderground v.1.15,2013-02-05 17:40:00,
2013-02-05 12:43:00,14.9,11.7,29.75,North,9,1.0,2.0,87,0.00,,,0.00,58,Wunderground v.1.15,2013-02-05 17:43:00,
2013-02-05 12:46:00,15.0,11.6,29.75,North,5,1.0,2.0,86,0.00,,,0.00,60,Wunderground v.1.15,2013-02-05 17:46:00,
2013-02-05 12:51:00,15.2,12.0,29.75,NNW,336,0.0,2.0,87,0.00,,,0.00,58,Wunderground v.1.15,2013-02-05 17:51:00,
2013-02-05 12:53:00,15.3,12.1,29.75,North,360,0.0,3.0,87,0.00,,,0.00,62,Wunderground v.1.15,2013-02-05 17:53:00,
2013-02-05 12:54:00,15.3,12.1,29.75,North,360,0.0,3.0,87,0.00,,,0.00,62,Wunderground v.1.15,2013-02-05 17:54:00,
2013-02-05 12:55:00,15.4,12.2,29.75,North,5,0.0,3.0,87,0.00,,,0.00,58,Wunderground v.1.15,2013-02-05 17:55:00,
2013-02-05 13:01:00,15.7,12.5,29.74,NNW,342,1.0,2.0,87,0.00,,,0.00,46,Wunderground v.1.15,2013-02-05 18:01:00,
2013-02-05 13:04:00,15.9,12.7,29.74,NNW,342,0.0,2.0,87,0.00,,,0.00,40,Wunderground v.1.15,2013-02-05 18:04:00,
2013-02-05 13:05:00,15.9,12.7,29.74,NNW,342,0.0,2.0,87,0.00,,,0.00,40,Wunderground v.1.15,2013-02-05 18:05:00,
2013-02-05 13:08:00,16.0,12.8,29.74,NNW,344,0.0,2.0,87,0.00,,,0.00,40,Wunderground v.1.15,2013-02-05 18:08:00,
2013-02-05 13:09:00,16.0,12.8,29.74,NNW,345,0.0,2.0,87,0.00,,,0.00,40,Wunderground v.1.15,2013-02-05 18:09:00,
2013-02-05 13:13:00,16.1,12.9,29.74,NNW,327,0.0,2.0,87,0.00,,,0.00,42,Wunderground v.1.15,2013-02-05 18:13:00,
2013-02-05 13:15:00,16.1,12.7,29.74,NNW,327,0.0,2.0,86,0.00,,,0.00,44,Wunderground v.1.15,2013-02-05 18:15:00,
2013-02-05 13:17:00,16.1,12.7,29.74,NW,315,0.0,2.0,86,0.00,,,0.00,44,Wunderground v.1.15,2013-02-05 18:17:00,
2013-02-05 13:18:00,16.1,12.7,29.74,NW,315,0.0,2.0,86,0.00,,,0.00,44,Wunderground v.1.15,2013-02-05 18:18:00,
2013-02-05 13:21:00,16.2,12.7,29.74,NNW,345,0.0,2.0,86,0.00,,,0.00,46,Wunderground v.1.15,2013-02-05 18:21:00,
2013-02-05 13:22:00,16.2,12.7,29.74,NW,308,0.0,2.0,86,0.00,,,0.00,47,Wunderground v.1.15,2013-02-05 18:22:00,
2013-02-05 13:25:00,16.2,12.7,29.74,NW,318,0.0,2.0,86,0.00,,,0.00,47,Wunderground v.1.15,2013-02-05 18:25:00,
2013-02-05 13:28:00,16.3,13.1,29.73,North,350,0.0,2.0,87,0.00,,,0.00,42,Wunderground v.1.15,2013-02-05 18:28:00,
2013-02-05 13:29:00,16.4,13.2,29.73,North,350,0.0,2.0,87,0.00,,,0.00,42,Wunderground v.1.15,2013-02-05 18:29:00,
2013-02-05 13:33:00,16.5,13.0,29.73,NW,317,0.0,0.0,86,0.00,,,0.00,44,Wunderground v.1.15,2013-02-05 18:33:00,
2013-02-05 13:34:00,16.5,13.0,29.73,NW,317,0.0,0.0,86,0.00,,,0.00,46,Wunderground v.1.15,2013-02-05 18:34:00,
2013-02-05 13:39:00,16.7,13.2,29.73,NW,317,0.0,0.0,86,0.00,,,0.00,39,Wunderground v.1.15,2013-02-05 18:39:00,
2013-02-05 13:40:00,16.7,13.5,29.73,NW,317,0.0,0.0,87,0.00,,,0.00,39,Wunderground v.1.15,2013-02-05 18:40:00,
2013-02-05 13:41:00,16.8,13.6,29.73,NW,317,0.0,0.0,87,0.00,,,0.00,39,Wunderground v.1.15,2013-02-05 18:41:00,
2013-02-05 13:45:00,16.9,13.7,29.73,NW,317,0.0,0.0,87,0.00,,,0.00,40,Wunderground v.1.15,2013-02-05 18:45:00,
2013-02-05 13:47:00,17.0,13.8,29.73,NW,317,0.0,0.0,87,0.00,,,0.00,40,Wunderground v.1.15,2013-02-05 18:47:00,
2013-02-05 13:48:00,17.0,13.8,29.73,NW,317,0.0,0.0,87,0.00,,,0.00,40,Wunderground v.1.15,2013-02-05 18:48:00,
2013-02-05 13:51:00,17.1,13.9,29.73,NW,317,0.0,0.0,87,0.00,,,0.00,39,Wunderground v.1.15,2013-02-05 18:51:00,
2013-02-05 13:54:00,17.2,14.0,29.73,NNW,336,0.0,0.0,87,0.00,,,0.00,35,Wunderground v.1.15,2013-02-05 18:54:00,
2013-02-05 13:56:00,17.2,14.0,29.74,NNW,327,0.0,0.0,87,0.00,,,0.00,30,Wunderground v.1.15,2013-02-05 18:56:00,
2013-02-05 13:57:00,17.2,14.0,29.73,NNW,327,0.0,0.0,87,0.00,,,0.00,28,Wunderground v.1.15,2013-02-05 18:57:00,
2013-02-05 13:59:00,17.1,13.9,29.74,NW,325,0.0,0.0,87,0.00,,,0.00,26,Wunderground v.1.15,2013-02-05 18:59:00,
2013-02-05 14:01:00,17.1,13.9,29.73,NW,325,0.0,3.0,87,0.00,,,0.00,26,Wunderground v.1.15,2013-02-05 19:01:00,
2013-02-05 14:02:00,17.1,13.9,29.73,NW,321,0.0,3.0,87,0.00,,,0.00,26,Wunderground v.1.15,2013-02-05 19:02:00,
2013-02-05 14:06:00,17.1,13.9,29.73,NW,316,0.0,3.0,87,0.00,,,0.00,26,Wunderground v.1.15,2013-02-05 19:06:00,
2013-02-05 14:07:00,17.1,13.9,29.73,NW,315,0.0,3.0,87,0.00,,,0.00,26,Wunderground v.1.15,2013-02-05 19:07:00,
2013-02-05 14:08:00,17.1,13.9,29.73,NW,315,0.0,3.0,87,0.00,,,0.00,26,Wunderground v.1.15,2013-02-05 19:08:00,
2013-02-05 14:10:00,17.1,13.9,29.73,NW,315,0.0,0.0,87,0.00,,,0.00,26,Wunderground v.1.15,2013-02-05 19:10:00,
2013-02-05 14:14:00,17.3,14.1,29.73,North,355,0.0,0.0,87,0.00,,,0.00,28,Wunderground v.1.15,2013-02-05 19:14:00,
2013-02-05 14:15:00,17.3,14.1,29.73,North,355,0.0,0.0,87,0.00,,,0.00,28,Wunderground v.1.15,2013-02-05 19:15:00,
2013-02-05 14:16:00,17.3,14.1,29.73,NW,316,0.0,3.0,87,0.00,,,0.00,28,Wunderground v.1.15,2013-02-05 19:16:00,
2013-02-05 14:17:00,17.3,14.1,29.73,NW,316,0.0,3.0,87,0.00,,,0.00,28,Wunderground v.1.15,2013-02-05 19:17:00,
2013-02-05 14:20:00,17.5,14.3,29.73,NW,316,0.0,3.0,87,0.00,,,0.00,26,Wunderground v.1.15,2013-02-05 19:20:00,
2013-02-05 14:22:00,17.5,14.3,29.73,NW,316,0.0,3.0,87,0.00,,,0.00,25,Wunderground v.1.15,2013-02-05 19:22:00,
2013-02-05 14:23:00,17.5,14.6,29.73,NW,316,0.0,3.0,88,0.00,,,0.00,26,Wunderground v.1.15,2013-02-05 19:23:00,
2013-02-05 14:26:00,17.6,14.4,29.73,NW,316,0.0,3.0,87,0.00,,,0.00,25,Wunderground v.1.15,2013-02-05 19:26:00,
2013-02-05 14:29:00,17.6,14.4,29.73,NW,316,0.0,3.0,87,0.00,,,0.00,25,Wunderground v.1.15,2013-02-05 19:29:00,
2013-02-05 14:30:00,17.6,14.4,29.73,NW,316,0.0,3.0,87,0.00,,,0.00,25,Wunderground v.1.15,2013-02-05 19:30:00,
2013-02-05 14:32:00,17.6,14.7,29.73,NW,316,0.0,3.0,88,0.00,,,0.00,23,Wunderground v.1.15,2013-02-05 19:32:00,
2013-02-05 14:33:00,17.6,14.7,29.73,NW,316,0.0,3.0,88,0.00,,,0.00,23,Wunderground v.1.15,2013-02-05 19:33:00,
2013-02-05 14:38:00,17.6,14.4,29.73,NW,316,0.0,3.0,87,0.00,,,0.00,23,Wunderground v.1.15,2013-02-05 19:38:00,
2013-02-05 14:40:00,17.7,14.8,29.73,NW,316,0.0,3.0,88,0.00,,,0.00,21,Wunderground v.1.15,2013-02-05 19:40:00,
2013-02-05 14:41:00,17.7,14.8,29.73,NW,316,0.0,3.0,88,0.00,,,0.00,21,Wunderground v.1.15,2013-02-05 19:41:00,
2013-02-05 14:44:00,17.7,14.8,29.73,NW,316,0.0,3.0,88,0.00,,,0.00,21,Wunderground v.1.15,2013-02-05 19:44:00,
2013-02-05 14:46:00,17.8,14.8,29.73,NW,316,0.0,3.0,88,0.00,,,0.00,19,Wunderground v.1.15,2013-02-05 19:46:00,
2013-02-05 14:47:00,17.7,14.8,29.74,NW,316,0.0,3.0,88,0.00,,,0.00,21,Wunderground v.1.15,2013-02-05 19:47:00,
2013-02-05 14:49:00,17.8,14.8,29.73,NW,316,0.0,3.0,88,0.00,,,0.00,23,Wunderground v.1.15,2013-02-05 19:49:00,
2013-02-05 14:51:00,17.9,14.9,29.73,NW,316,0.0,3.0,88,0.00,,,0.00,23,Wunderground v.1.15,2013-02-05 19:51:00,
2013-02-05 14:55:00,17.9,14.9,29.73,NW,316,0.0,3.0,88,0.00,,,0.00,21,Wunderground v.1.15,2013-02-05 19:55:00,
2013-02-05 14:56:00,18.0,15.0,29.74,NW,316,0.0,3.0,88,0.00,,,0.00,21,Wunderground v.1.15,2013-02-05 19:56:00,
2013-02-05 14:57:00,18.0,15.0,29.74,NW,316,0.0,3.0,88,0.00,,,0.00,21,Wunderground v.1.15,2013-02-05 19:57:00,
2013-02-05 15:03:00,18.1,15.1,29.74,NW,316,0.0,3.0,88,0.00,,,0.00,21,Wunderground v.1.15,2013-02-05 20:03:00,
2013-02-05 15:04:00,18.2,15.2,29.74,NW,316,0.0,3.0,88,0.00,,,0.00,21,Wunderground v.1.15,2013-02-05 20:04:00,
2013-02-05 15:06:00,18.2,15.2,29.74,NW,316,0.0,3.0,88,0.00,,,0.00,23,Wunderground v.1.15,2013-02-05 20:06:00,
2013-02-05 15:07:00,18.3,15.3,29.74,NW,316,0.0,3.0,88,0.00,,,0.00,21,Wunderground v.1.15,2013-02-05 20:07:00,
2013-02-05 15:08:00,18.3,15.3,29.74,NW,316,0.0,3.0,88,0.00,,,0.00,21,Wunderground v.1.15,2013-02-05 20:08:00,
2013-02-05 15:11:00,18.4,15.4,29.74,NW,316,0.0,3.0,88,0.00,,,0.00,21,Wunderground v.1.15,2013-02-05 20:11:00,
2013-02-05 15:14:00,18.4,15.4,29.74,NW,316,0.0,3.0,88,0.00,,,0.00,21,Wunderground v.1.15,2013-02-05 20:14:00,
2013-02-05 15:15:00,18.4,15.4,29.74,NW,316,0.0,3.0,88,0.00,,,0.00,21,Wunderground v.1.15,2013-02-05 20:15:00,
2013-02-05 15:17:00,18.5,15.5,29.74,NW,316,0.0,3.0,88,0.00,,,0.00,23,Wunderground v.1.15,2013-02-05 20:17:00,
2013-02-05 15:18:00,18.5,15.5,29.74,NW,316,0.0,3.0,88,0.00,,,0.00,23,Wunderground v.1.15,2013-02-05 20:18:00,
2013-02-05 15:19:00,18.5,15.5,29.74,NW,316,0.0,3.0,88,0.00,,,0.00,23,Wunderground v.1.15,2013-02-05 20:19:00,
2013-02-05 15:24:00,18.6,15.6,29.74,NW,316,0.0,3.0,88,0.00,,,0.00,23,Wunderground v.1.15,2013-02-05 20:24:00,
2013-02-05 15:26:00,18.7,15.7,29.74,NW,316,0.0,3.0,88,0.00,,,0.00,23,Wunderground v.1.15,2013-02-05 20:26:00,
2013-02-05 15:27:00,18.8,15.8,29.74,NW,316,0.0,3.0,88,0.00,,,0.00,23,Wunderground v.1.15,2013-02-05 20:27:00,
2013-02-05 15:28:00,18.8,15.8,29.74,NW,316,0.0,3.0,88,0.00,,,0.00,23,Wunderground v.1.15,2013-02-05 20:28:00,
2013-02-05 15:30:00,18.9,15.9,29.74,NW,316,0.0,3.0,88,0.00,,,0.00,23,Wunderground v.1.15,2013-02-05 20:30:00,
2013-02-05 15:34:00,19.2,16.2,29.75,NW,316,0.0,3.0,88,0.00,,,0.00,23,Wunderground v.1.15,2013-02-05 20:34:00,
2013-02-05 15:35:00,19.3,16.3,29.74,NW,316,0.0,3.0,88,0.00,,,0.00,23,Wunderground v.1.15,2013-02-05 20:35:00,
2013-02-05 15:36:00,19.3,16.3,29.74,NW,316,0.0,3.0,88,0.00,,,0.00,23,Wunderground v.1.15,2013-02-05 20:36:00,
2013-02-05 15:39:00,19.4,16.4,29.74,West,268,0.0,3.0,88,0.00,,,0.00,21,Wunderground v.1.15,2013-02-05 20:39:00,
2013-02-05 15:41:00,19.5,16.5,29.75,East,90,0.0,3.0,88,0.00,,,0.00,19,Wunderground v.1.15,2013-02-05 20:41:00,
2013-02-05 15:45:00,19.6,16.6,29.75,SSE,168,0.0,6.0,88,0.00,,,0.00,23,Wunderground v.1.15,2013-02-05 20:45:00,
2013-02-05 15:46:00,19.7,16.7,29.75,SSE,166,1.0,6.0,88,0.00,,,0.00,33,Wunderground v.1.15,2013-02-05 20:46:00,
2013-02-05 15:50:00,19.7,16.7,29.75,South,191,1.0,1.0,88,0.00,,,0.00,32,Wunderground v.1.15,2013-02-05 20:50:00,
2013-02-05 15:53:00,19.7,16.5,29.75,SSW,200,1.0,4.0,87,0.00,,,0.00,25,Wunderground v.1.15,2013-02-05 20:53:00,
2013-02-05 15:54:00,19.7,16.5,29.75,South,187,2.0,4.0,87,0.00,,,0.00,23,Wunderground v.1.15,2013-02-05 20:54:00,
2013-02-05 15:55:00,19.7,16.5,29.75,South,170,2.0,4.0,87,0.00,,,0.00,21,Wunderground v.1.15,2013-02-05 20:55:00,
2013-02-05 15:56:00,19.7,16.5,29.75,South,179,2.0,5.0,87,0.00,,,0.00,25,Wunderground v.1.15,2013-02-05 20:56:00,
2013-02-05 16:00:00,19.5,16.0,29.75,South,175,3.0,6.0,86,0.00,,,0.00,21,Wunderground v.1.15,2013-02-05 21:00:00,
2013-02-05 16:02:00,19.5,15.7,29.75,South,184,4.0,8.0,85,0.00,,,0.00,19,Wunderground v.1.15,2013-02-05 21:02:00,
2013-02-05 16:03:00,19.4,15.6,29.75,South,188,5.0,8.0,85,0.00,,,0.00,18,Wunderground v.1.15,2013-02-05 21:03:00,
2013-02-05 16:06:00,19.4,15.4,29.75,South,181,5.0,8.0,84,0.00,,,0.00,19,Wunderground v.1.15,2013-02-05 21:06:00,
2013-02-05 16:09:00,19.3,15.0,29.75,South,185,4.0,8.0,83,0.00,,,0.00,14,Wunderground v.1.15,2013-02-05 21:09:00,
2013-02-05 16:11:00,19.3,15.0,29.75,South,190,3.0,4.0,83,0.00,,,0.00,16,Wunderground v.1.15,2013-02-05 21:11:00,
2013-02-05 16:12:00,19.3,15.0,29.75,South,189,3.0,4.0,83,0.00,,,0.00,14,Wunderground v.1.15,2013-02-05 21:12:00,
2013-02-05 16:17:00,19.2,14.9,29.75,SSE,168,3.0,6.0,83,0.00,,,0.00,18,Wunderground v.1.15,2013-02-05 21:17:00,
2013-02-05 16:18:00,19.2,14.9,29.75,SSE,166,3.0,6.0,83,0.00,,,0.00,16,Wunderground v.1.15,2013-02-05 21:18:00,
2013-02-05 16:19:00,19.2,14.6,29.75,SSE,162,3.0,6.0,82,0.00,,,0.00,14,Wunderground v.1.15,2013-02-05 21:19:00,
2013-02-05 16:22:00,19.2,14.6,29.75,SW,235,2.0,3.0,82,0.00,,,0.00,12,Wunderground v.1.15,2013-02-05 21:22:00,
2013-02-05 16:23:00,19.2,14.6,29.75,South,177,2.0,3.0,82,0.00,,,0.00,16,Wunderground v.1.15,2013-02-05 21:23:00,
2013-02-05 16:28:00,19.4,14.8,29.76,SSW,208,1.0,3.0,82,0.00,,,0.00,18,Wunderground v.1.15,2013-02-05 21:28:00,
2013-02-05 16:29:00,19.4,14.8,29.76,SSW,211,1.0,3.0,82,0.00,,,0.00,18,Wunderground v.1.15,2013-02-05 21:29:00,
2013-02-05 16:30:00,19.4,14.8,29.76,SSW,211,1.0,2.0,82,0.00,,,0.00,18,Wunderground v.1.15,2013-02-05 21:30:00,
2013-02-05 16:34:00,19.5,14.9,29.76,SSW,209,1.0,3.0,82,0.00,,,0.00,16,Wunderground v.1.15,2013-02-05 21:34:00,
2013-02-05 16:36:00,19.5,14.9,29.76,SSW,210,1.0,3.0,82,0.00,,,0.00,19,Wunderground v.1.15,2013-02-05 21:36:00,
2013-02-05 16:38:00,19.6,14.7,29.76,SSW,209,1.0,3.0,81,0.00,,,0.00,19,Wunderground v.1.15,2013-02-05 21:38:00,
2013-02-05 16:39:00,19.6,14.7,29.76,SW,226,1.0,3.0,81,0.00,,,0.00,16,Wunderground v.1.15,2013-02-05 21:39:00,
2013-02-05 16:43:00,19.6,14.4,29.76,South,177,1.0,5.0,80,0.00,,,0.00,14,Wunderground v.1.15,2013-02-05 21:43:00,
2013-02-05 16:46:00,19.5,14.3,29.76,SSW,209,2.0,5.0,80,0.00,,,0.00,12,Wunderground v.1.15,2013-02-05 21:46:00,
2013-02-05 16:47:00,19.5,14.3,29.76,SW,229,2.0,5.0,80,0.00,,,0.00,12,Wunderground v.1.15,2013-02-05 21:47:00,
2013-02-05 16:49:00,19.5,14.0,29.76,SSW,199,2.0,5.0,79,0.00,,,0.00,14,Wunderground v.1.15,2013-02-05 21:49:00,
2013-02-05 16:53:00,19.5,14.0,29.76,SSW,204,1.0,4.0,79,0.00,,,0.00,12,Wunderground v.1.15,2013-02-05 21:53:00,
2013-02-05 16:55:00,19.5,14.3,29.76,SSW,209,1.0,4.0,80,0.00,,,0.00,7,Wunderground v.1.15,2013-02-05 21:55:00,
2013-02-05 16:57:00,19.4,13.9,29.76,SSW,209,1.0,4.0,79,0.00,,,0.00,5,Wunderground v.1.15,2013-02-05 21:57:00,
2013-02-05 16:59:00,19.4,13.9,29.76,SSW,199,1.0,4.0,79,0.00,,,0.00,7,Wunderground v.1.15,2013-02-05 21:59:00,
2013-02-05 17:01:00,19.4,13.9,29.76,SSW,199,0.0,9.0,79,0.00,,,0.00,12,Wunderground v.1.15,2013-02-05 22:01:00,
2013-02-05 17:03:00,19.3,13.9,29.76,SSW,199,0.0,9.0,79,0.00,,,0.00,14,Wunderground v.1.15,2013-02-05 22:03:00,
2013-02-05 17:04:00,19.3,14.1,29.76,SSW,199,0.0,9.0,80,0.00,,,0.00,16,Wunderground v.1.15,2013-02-05 22:04:00,
2013-02-05 17:06:00,19.2,14.0,29.76,SSW,199,0.0,9.0,80,0.00,,,0.00,18,Wunderground v.1.15,2013-02-05 22:06:00,
2013-02-05 17:09:00,19.2,14.0,29.76,SSW,199,0.0,9.0,80,0.00,,,0.00,12,Wunderground v.1.15,2013-02-05 22:09:00,
2013-02-05 17:13:00,19.1,13.9,29.77,SSW,199,0.0,9.0,80,0.00,,,0.00,7,Wunderground v.1.15,2013-02-05 22:13:00,
2013-02-05 17:14:00,19.2,14.0,29.77,SSW,199,0.0,9.0,80,0.00,,,0.00,7,Wunderground v.1.15,2013-02-05 22:14:00,
2013-02-05 17:16:00,19.2,14.0,29.77,SSW,195,0.0,9.0,80,0.00,,,0.00,5,Wunderground v.1.15,2013-02-05 22:16:00,
2013-02-05 17:17:00,19.2,14.0,29.77,SSE,164,0.0,9.0,80,0.00,,,0.00,5,Wunderground v.1.15,2013-02-05 22:17:00,
2013-02-05 17:20:00,19.1,13.9,29.77,SSE,168,1.0,9.0,80,0.00,,,0.00,0,Wunderground v.1.15,2013-02-05 22:20:00,
2013-02-05 17:22:00,19.1,13.9,29.77,South,187,2.0,9.0,80,0.00,,,0.00,0,Wunderground v.1.15,2013-02-05 22:22:00,
2013-02-05 17:25:00,19.0,13.8,29.77,South,180,2.0,9.0,80,0.00,,,0.00,0,Wunderground v.1.15,2013-02-05 22:25:00,
2013-02-05 17:26:00,19.0,13.8,29.77,South,180,3.0,9.0,80,0.00,,,0.00,0,Wunderground v.1.15,2013-02-05 22:26:00,
2013-02-05 17:28:00,19.0,13.8,29.77,South,180,2.0,9.0,80,0.00,,,0.00,0,Wunderground v.1.15,2013-02-05 22:28:00,
2013-02-05 17:29:00,19.0,13.8,29.78,South,178,2.0,9.0,80,0.00,,,0.00,0,Wunderground v.1.15,2013-02-05 22:29:00,
2013-02-05 17:34:00,19.1,14.2,29.78,SSE,159,2.0,9.0,81,0.00,,,0.00,0,Wunderground v.1.15,2013-02-05 22:34:00,
2013-02-05 17:35:00,19.1,14.2,29.78,SSE,159,2.0,9.0,81,0.00,,,0.00,0,Wunderground v.1.15,2013-02-05 22:35:00,
2013-02-05 17:36:00,19.1,14.2,29.78,South,169,1.0,9.0,81,0.00,,,0.00,0,Wunderground v.1.15,2013-02-05 22:36:00,
2013-02-05 17:40:00,19.2,14.6,29.79,SSE,167,2.0,9.0,82,0.00,,,0.00,0,Wunderground v.1.15,2013-02-05 22:40:00,
2013-02-05 17:41:00,19.2,14.6,29.79,South,169,2.0,9.0,82,0.00,,,0.00,0,Wunderground v.1.15,2013-02-05 22:41:00,
2013-02-05 17:43:00,19.2,14.6,29.79,SSE,165,2.0,9.0,82,0.00,,,0.00,0,Wunderground v.1.15,2013-02-05 22:43:00,
2013-02-05 17:47:00,19.0,14.7,29.80,SSE,167,3.0,9.0,83,0.00,,,0.00,0,Wunderground v.1.15,2013-02-05 22:47:00,
2013-02-05 17:48:00,19.0,14.7,29.80,South,174,3.0,9.0,83,0.00,,,0.00,0,Wunderground v.1.15,2013-02-05 22:48:00,
2013-02-05 17:49:00,19.0,15.0,29.80,SSE,168,3.0,9.0,84,0.00,,,0.00,0,Wunderground v.1.15,2013-02-05 22:49:00,
2013-02-05 17:54:00,18.8,15.0,29.80,South,173,3.0,9.0,85,0.00,,,0.00,0,Wunderground v.1.15,2013-02-05 22:54:00,
2013-02-05 17:55:00,18.8,15.0,29.80,SSE,167,3.0,9.0,85,0.00,,,0.00,0,Wunderground v.1.15,2013-02-05 22:55:00,
2013-02-05 17:59:00,18.6,15.1,29.81,South,182,4.0,9.0,86,0.00,,,0.00,0,Wunderground v.1.15,2013-02-05 22:59:00,
2013-02-05 18:00:00,18.6,15.1,29.81,South,176,4.0,9.0,86,0.00,,,0.00,0,Wunderground v.1.15,2013-02-05 23:00:00,
2013-02-05 18:02:00,18.5,15.0,29.81,South,169,4.0,9.0,86,0.00,,,0.00,0,Wunderground v.1.15,2013-02-05 23:02:00,
2013-02-05 18:05:00,18.4,14.9,29.81,SSE,168,4.0,9.0,86,0.00,,,0.00,0,Wunderground v.1.15,2013-02-05 23:05:00,
2013-02-05 18:07:00,18.4,15.2,29.81,SSE,168,5.0,9.0,87,0.00,,,0.00,0,Wunderground v.1.15,2013-02-05 23:07:00,
2013-02-05 18:08:00,18.4,15.2,29.81,South,175,4.0,9.0,87,0.00,,,0.00,0,Wunderground v.1.15,2013-02-05 23:08:00,
2013-02-05 18:12:00,18.4,15.4,29.81,South,182,4.0,9.0,88,0.00,,,0.00,0,Wunderground v.1.15,2013-02-05 23:12:00,
2013-02-05 18:16:00,18.6,15.6,29.81,South,172,6.0,9.0,88,0.00,,,0.00,0,Wunderground v.1.15,2013-02-05 23:16:00,
2013-02-05 18:18:00,18.6,15.9,29.81,South,178,6.0,9.0,89,0.00,,,0.00,0,Wunderground v.1.15,2013-02-05 23:18:00,
2013-02-05 18:19:00,18.7,16.0,29.81,South,180,6.0,9.0,89,0.00,,,0.00,0,Wunderground v.1.15,2013-02-05 23:19:00,
2013-02-05 18:23:00,18.9,16.2,29.81,South,187,6.0,9.0,89,0.00,,,0.00,0,Wunderground v.1.15,2013-02-05 23:23:00,
2013-02-05 18:26:00,19.0,16.3,29.81,SSW,194,5.0,9.0,89,0.00,,,0.00,0,Wunderground v.1.15,2013-02-05 23:26:00,
2013-02-05 18:27:00,19.1,16.1,29.81,South,181,5.0,9.0,88,0.00,,,0.00,0,Wunderground v.1.15,2013-02-05 23:27:00,
2013-02-05 18:33:00,19.4,16.4,29.81,South,185,6.0,9.0,88,0.00,,,0.00,0,Wunderground v.1.15,2013-02-05 23:33:00,
2013-02-05 18:37:00,19.4,16.4,29.82,SSW,205,6.0,9.0,88,0.00,,,0.00,0,Wunderground v.1.15,2013-02-05 23:37:00,
2013-02-05 18:38:00,19.5,16.5,29.82,SSW,202,5.0,9.0,88,0.00,,,0.00,0,Wunderground v.1.15,2013-02-05 23:38:00,
2013-02-05 18:39:00,19.5,16.5,29.82,South,185,5.0,9.0,88,0.00,,,0.00,0,Wunderground v.1.15,2013-02-05 23:39:00,
2013-02-05 18:42:00,19.5,16.5,29.82,South,184,4.0,9.0,88,0.00,,,0.00,0,Wunderground v.1.15,2013-02-05 23:42:00,
2013-02-05 18:45:00,19.5,16.5,29.82,South,185,4.0,9.0,88,0.00,,,0.00,0,Wunderground v.1.15,2013-02-05 23:45:00,
2013-02-05 18:47:00,19.5,16.5,29.82,SSW,197,4.0,9.0,88,0.00,,,0.00,0,Wunderground v.1.15,2013-02-05 23:47:00,
2013-02-05 18:51:00,19.5,16.5,29.82,SSW,209,5.0,9.0,88,0.00,,,0.00,0,Wunderground v.1.15,2013-02-05 23:51:00,
2013-02-05 18:53:00,19.5,16.5,29.82,SW,221,5.0,9.0,88,0.00,,,0.00,0,Wunderground v.1.15,2013-02-05 23:53:00,
2013-02-05 18:55:00,19.4,16.4,29.82,SSW,211,4.0,9.0,88,0.00,,,0.00,0,Wunderground v.1.15,2013-02-05 23:55:00,
2013-02-05 18:56:00,19.4,16.4,29.82,SSW,211,4.0,9.0,88,0.00,,,0.00,0,Wunderground v.1.15,2013-02-05 23:56:00,
2013-02-05 19:00:00,19.5,16.5,29.82,South,190,4.0,4.0,88,0.00,,,0.00,0,Wunderground v.1.15,2013-02-06 00:00:00,
2013-02-05 19:05:00,19.7,16.7,29.83,SSW,213,4.0,9.0,88,0.00,,,0.00,0,Wunderground v.1.15,2013-02-06 00:05:00,
2013-02-05 19:06:00,19.7,16.7,29.83,South,178,4.0,9.0,88,0.00,,,0.00,0,Wunderground v.1.15,2013-02-06 00:06:00,
2013-02-05 19:10:00,19.6,16.9,29.83,SSE,167,5.0,9.0,89,0.00,,,0.00,0,Wunderground v.1.15,2013-02-06 00:10:00,
2013-02-05 19:11:00,19.6,16.9,29.83,South,169,5.0,9.0,89,0.00,,,0.00,0,Wunderground v.1.15,2013-02-06 00:11:00,
2013-02-05 19:15:00,19.5,16.8,29.83,South,181,5.0,9.0,89,0.00,,,0.00,0,Wunderground v.1.15,2013-02-06 00:15:00,
2013-02-05 19:16:00,19.5,16.8,29.83,SSW,209,5.0,9.0,89,0.00,,,0.00,0,Wunderground v.1.15,2013-02-06 00:16:00,
2013-02-05 19:17:00,19.5,16.8,29.83,SSE,160,5.0,9.0,89,0.00,,,0.00,0,Wunderground v.1.15,2013-02-06 00:17:00,
2013-02-05 19:18:00,19.5,16.8,29.83,South,184,5.0,9.0,89,0.00,,,0.00,0,Wunderground v.1.15,2013-02-06 00:18:00,
2013-02-05 19:20:00,19.5,17.0,29.83,South,186,5.0,9.0,90,0.00,,,0.00,0,Wunderground v.1.15,2013-02-06 00:20:00,
2013-02-05 19:24:00,19.5,17.0,29.83,SSW,211,5.0,9.0,90,0.00,,,0.00,0,Wunderground v.1.15,2013-02-06 00:24:00,
2013-02-05 19:34:00,19.6,17.1,29.84,South,178,6.0,15.0,90,0.00,,,0.00,0,Wunderground v.1.15,2013-02-06 00:34:00,
2013-02-05 19:35:00,19.7,17.2,29.84,South,178,6.0,15.0,90,0.00,,,0.00,0,Wunderground v.1.15,2013-02-06 00:35:00,
2013-02-05 19:37:00,19.8,17.3,29.84,SE,146,7.0,15.0,90,0.00,,,0.00,0,Wunderground v.1.15,2013-02-06 00:37:00,
2013-02-05 19:40:00,19.9,17.2,29.84,South,170,8.0,8.0,89,0.00,,,0.00,0,Wunderground v.1.15,2013-02-06 00:40:00,
2013-02-05 19:42:00,19.9,17.2,29.84,South,190,8.0,12.0,89,0.00,,,0.00,0,Wunderground v.1.15,2013-02-06 00:42:00,
2013-02-05 19:43:00,19.9,17.2,29.84,South,178,8.0,12.0,89,0.00,,,0.00,0,Wunderground v.1.15,2013-02-06 00:43:00,
2013-02-05 19:45:00,19.9,17.2,29.84,SSW,209,8.0,12.0,89,0.00,,,0.00,0,Wunderground v.1.15,2013-02-06 00:45:00,
2013-02-05 19:47:00,19.9,17.2,29.84,SSW,196,7.0,14.0,89,0.00,,,0.00,0,Wunderground v.1.15,2013-02-06 00:47:00,
2013-02-05 19:50:00,19.8,16.8,29.84,SSW,204,8.0,8.0,88,0.00,,,0.00,0,Wunderground v.1.15,2013-02-06 00:50:00,
2013-02-05 19:53:00,19.8,16.8,29.85,South,179,9.0,11.0,88,0.00,,,0.00,0,Wunderground v.1.15,2013-02-06 00:53:00,
2013-02-05 19:55:00,19.8,16.8,29.84,South,176,9.0,11.0,88,0.00,,,0.00,0,Wunderground v.1.15,2013-02-06 00:55:00,
2013-02-05 19:58:00,19.7,16.5,29.85,South,191,9.0,13.0,87,0.00,,,0.00,0,Wunderground v.1.15,2013-02-06 00:58:00,
2013-02-05 20:01:00,19.5,16.0,29.85,SSW,199,8.0,9.0,86,0.00,,,0.00,0,Wunderground v.1.15,2013-02-06 01:01:00,
2013-02-05 20:02:00,19.5,16.0,29.85,South,173,8.0,12.0,86,0.00,,,0.00,0,Wunderground v.1.15,2013-02-06 01:02:00,
2013-02-05 20:06:00,19.5,15.7,29.85,South,178,9.0,12.0,85,0.00,,,0.00,0,Wunderground v.1.15,2013-02-06 01:06:00,
2013-02-05 20:07:00,19.5,15.7,29.86,SW,221,9.0,12.0,85,0.00,,,0.00,0,Wunderground v.1.15,2013-02-06 01:07:00,
2013-02-05 20:12:00,19.3,15.3,29.86,SSW,211,9.0,12.0,84,0.00,,,0.00,0,Wunderground v.1.15,2013-02-06 01:12:00,
2013-02-05 20:14:00,19.3,15.0,29.86,SSW,211,8.0,12.0,83,0.00,,,0.00,0,Wunderground v.1.15,2013-02-06 01:14:00,
2013-02-05 20:18:00,19.2,14.3,29.87,SSE,167,9.0,12.0,81,0.00,,,0.00,0,Wunderground v.1.15,2013-02-06 01:18:00,
2013-02-05 20:19:00,19.1,14.2,29.87,SW,219,9.0,12.0,81,0.00,,,0.00,0,Wunderground v.1.15,2013-02-06 01:19:00,
2013-02-05 20:20:00,19.1,14.2,29.87,SE,144,9.0,10.0,81,0.00,,,0.00,0,Wunderground v.1.15,2013-02-06 01:20:00,
2013-02-05 20:25:00,19.0,13.8,29.87,South,189,10.0,13.0,80,0.00,,,0.00,0,Wunderground v.1.15,2013-02-06 01:25:00,
2013-02-05 20:26:00,18.9,13.7,29.87,SSW,203,10.0,13.0,80,0.00,,,0.00,0,Wunderground v.1.15,2013-02-06 01:26:00,
2013-02-05 20:32:00,18.9,13.7,29.87,South,180,9.0,18.0,80,0.00,,,0.00,0,Wunderground v.1.15,2013-02-06 01:32:00,
2013-02-05 20:35:00,18.9,13.7,29.87,South,171,9.0,18.0,80,0.00,,,0.00,0,Wunderground v.1.15,2013-02-06 01:35:00,
2013-02-05 20:37:00,18.8,13.9,29.87,South,190,10.0,19.0,81,0.00,,,0.00,0,Wunderground v.1.15,2013-02-06 01:37:00,
2013-02-05 20:38:00,18.8,13.9,29.87,South,173,11.0,19.0,81,0.00,,,0.00,0,Wunderground v.1.15,2013-02-06 01:38:00,
2013-02-05 20:43:00,18.5,13.6,29.87,SSW,196,12.0,21.0,81,0.00,,,0.00,0,Wunderground v.1.15,2013-02-06 01:43:00,
2013-02-05 20:45:00,18.5,13.6,29.88,SSE,167,12.0,21.0,81,0.00,,,0.00,0,Wunderground v.1.15,2013-02-06 01:45:00,
2013-02-05 20:46:00,18.5,13.6,29.88,SSW,211,12.0,21.0,81,0.00,,,0.00,0,Wunderground v.1.15,2013-02-06 01:46:00,
2013-02-05 20:51:00,18.5,13.1,29.88,South,182,11.0,13.0,79,0.00,,,0.00,0,Wunderground v.1.15,2013-02-06 01:51:00,
2013-02-05 20:52:00,18.5,13.1,29.88,SSE,166,10.0,13.0,79,0.00,,,0.00,0,Wunderground v.1.15,2013-02-06 01:52:00,
2013-02-05 20:53:00,18.5,13.1,29.88,South,180,11.0,13.0,79,0.00,,,0.00,0,Wunderground v.1.15,2013-02-06 01:53:00,
2013-02-05 20:57:00,18.4,12.7,29.88,SSW,199,11.0,13.0,78,0.00,,,0.00,0,Wunderground v.1.15,2013-02-06 01:57:00,
2013-02-05 21:01:00,18.4,12.7,29.88,South,180,10.0,10.0,78,0.00,,,0.00,0,Wunderground v.1.15,2013-02-06 02:01:00,
2013-02-05 21:03:00,18.3,12.6,29.89,South,178,9.0,10.0,78,0.00,,,0.00,0,Wunderground v.1.15,2013-02-06 02:03:00,
2013-02-05 21:06:00,18.3,12.6,29.88,SSE,155,8.0,19.0,78,0.00,,,0.00,0,Wunderground v.1.15,2013-02-06 02:06:00,
2013-02-05 21:08:00,18.2,12.5,29.89,SSW,200,8.0,19.0,78,0.00,,,0.00,0,Wunderground v.1.15,2013-02-06 02:08:00,
2013-02-05 21:10:00,18.2,12.5,29.89,South,178,8.0,8.0,78,0.00,,,0.00,0,Wunderground v.1.15,2013-02-06 02:10:00,
2013-02-05 21:12:00,18.2,12.5,29.89,South,177,8.0,10.0,78,0.00,,,0.00,0,Wunderground v.1.15,2013-02-06 02:12:00,
2013-02-05 21:14:00,18.1,12.4,29.89,South,191,8.0,10.0,78,0.00,,,0.00,0,Wunderground v.1.15,2013-02-06 02:14:00,
2013-02-05 21:17:00,18.1,12.1,29.89,South,177,8.0,11.0,77,0.00,,,0.00,0,Wunderground v.1.15,2013-02-06 02:17:00,
2013-02-05 21:18:00,18.1,12.1,29.89,South,191,8.0,11.0,77,0.00,,,0.00,0,Wunderground v.1.15,2013-02-06 02:18:00,
2013-02-05 21:23:00,18.2,12.8,29.89,SSW,194,9.0,17.0,79,0.00,,,0.00,0,Wunderground v.1.15,2013-02-06 02:23:00,
2013-02-05 21:24:00,18.2,12.8,29.90,SSW,205,9.0,17.0,79,0.00,,,0.00,0,Wunderground v.1.15,2013-02-06 02:24:00,
2013-02-05 21:25:00,18.2,12.8,29.90,South,175,9.0,17.0,79,0.00,,,0.00,0,Wunderground v.1.15,2013-02-06 02:25:00,
2013-02-05 21:30:00,18.1,12.7,29.90,SSW,202,9.0,10.0,79,0.00,,,0.00,0,Wunderground v.1.15,2013-02-06 02:30:00,
2013-02-05 21:34:00,18.0,12.3,29.91,SSE,149,9.0,13.0,78,0.00,,,0.00,0,Wunderground v.1.15,2013-02-06 02:34:00,
2013-02-05 21:36:00,17.9,12.2,29.91,South,186,10.0,16.0,78,0.00,,,0.00,0,Wunderground v.1.15,2013-02-06 02:36:00,
2013-02-05 21:37:00,17.9,11.9,29.91,South,180,10.0,16.0,77,0.00,,,0.00,0,Wunderground v.1.15,2013-02-06 02:37:00,
2013-02-05 21:41:00,17.7,11.4,29.91,South,182,11.0,12.0,76,0.00,,,0.00,0,Wunderground v.1.15,2013-02-06 02:41:00,
2013-02-05 21:43:00,17.7,11.4,29.91,South,179,10.0,12.0,76,0.00,,,0.00,0,Wunderground v.1.15,2013-02-06 02:43:00,
2013-02-05 21:46:00,17.6,11.3,29.92,SSW,200,10.0,12.0,76,0.00,,,0.00,0,Wunderground v.1.15,2013-02-06 02:46:00,
2013-02-05 21:48:00,17.6,11.0,29.92,SSW,200,9.0,15.0,75,0.00,,,0.00,0,Wunderground v.1.15,2013-02-06 02:48:00,
2013-02-05 21:49:00,17.5,11.2,29.92,SSW,205,9.0,15.0,76,0.00,,,0.00,0,Wunderground v.1.15,2013-02-06 02:49:00,
2013-02-05 21:50:00,17.6,11.3,29.92,SSW,200,8.0,8.0,76,0.00,,,0.00,0,Wunderground v.1.15,2013-02-06 02:50:00,
2013-02-05 21:55:00,17.5,11.8,29.93,SSW,200,8.0,10.0,78,0.00,,,0.00,0,Wunderground v.1.15,2013-02-06 02:55:00,
2013-02-05 21:57:00,17.5,11.8,29.93,SSW,202,7.0,10.0,78,0.00,,,0.00,0,Wunderground v.1.15,2013-02-06 02:57:00,
2013-02-05 22:00:00,17.3,11.9,29.93,SSE,159,6.0,10.0,79,0.00,,,0.00,0,Wunderground v.1.15,2013-02-06 03:00:00,
2013-02-05 22:01:00,17.3,12.2,29.93,South,184,5.0,10.0,80,0.00,,,0.00,0,Wunderground v.1.15,2013-02-06 03:01:00,
2013-02-05 22:04:00,17.1,12.0,29.93,SSW,213,4.0,10.0,80,0.00,,,0.00,0,Wunderground v.1.15,2013-02-06 03:04:00,
2013-02-05 22:06:00,17.0,12.2,29.94,SSW,192,5.0,13.0,81,0.00,,,0.00,0,Wunderground v.1.15,2013-02-06 03:06:00,
2013-02-05 22:09:00,16.7,11.9,29.94,SSW,212,5.0,13.0,81,0.00,,,0.00,0,Wunderground v.1.15,2013-02-06 03:09:00,
2013-02-05 22:12:00,16.5,11.7,29.94,SSW,209,6.0,10.0,81,0.00,,,0.00,0,Wunderground v.1.15,2013-02-06 03:12:00,
2013-02-05 22:15:00,16.2,11.1,29.94,SSW,211,7.0,10.0,80,0.00,,,0.00,0,Wunderground v.1.15,2013-02-06 03:15:00,
2013-02-05 22:18:00,16.0,10.9,29.94,SSW,211,6.0,10.0,80,0.00,,,0.00,0,Wunderground v.1.15,2013-02-06 03:18:00,
2013-02-05 22:21:00,15.8,10.4,29.94,SSW,196,6.0,10.0,79,0.00,,,0.00,0,Wunderground v.1.15,2013-02-06 03:21:00,
2013-02-05 22:25:00,15.5,9.9,29.95,SSW,199,6.0,11.0,78,0.00,,,0.00,0,Wunderground v.1.15,2013-02-06 03:25:00,
2013-02-05 22:28:00,15.3,9.4,29.95,SSW,201,7.0,11.0,77,0.00,,,0.00,0,Wunderground v.1.15,2013-02-06 03:28:00,
2013-02-05 22:33:00,15.0,9.1,29.95,SSW,192,6.0,10.0,77,0.00,,,0.00,0,Wunderground v.1.15,2013-02-06 03:33:00,
2013-02-05 22:35:00,15.0,8.8,29.95,South,190,7.0,10.0,76,0.00,,,0.00,0,Wunderground v.1.15,2013-02-06 03:35:00,
2013-02-05 22:40:00,14.6,8.4,29.96,SSW,213,5.0,5.0,76,0.00,,,0.00,0,Wunderground v.1.15,2013-02-06 03:40:00,
2013-02-05 22:41:00,14.6,8.4,29.96,SSW,201,5.0,10.0,76,0.00,,,0.00,0,Wunderground v.1.15,2013-02-06 03:41:00,
2013-02-05 22:42:00,14.6,8.4,29.96,West,267,5.0,10.0,76,0.00,,,0.00,0,Wunderground v.1.15,2013-02-06 03:42:00,
2013-02-05 22:45:00,14.5,8.3,29.96,South,179,4.0,10.0,76,0.00,,,0.00,0,Wunderground v.1.15,2013-02-06 03:45:00,
2013-02-05 22:48:00,14.4,7.9,29.96,South,184,3.0,10.0,75,0.00,,,0.00,0,Wunderground v.1.15,2013-02-06 03:48:00,
2013-02-05 22:50:00,14.3,7.8,29.96,SW,225,3.0,3.0,75,0.00,,,0.00,0,Wunderground v.1.15,2013-02-06 03:50:00,
2013-02-05 22:51:00,14.2,7.7,29.96,SSW,200,3.0,10.0,75,0.00,,,0.00,0,Wunderground v.1.15,2013-02-06 03:51:00,
2013-02-05 22:52:00,14.2,8.0,29.96,SSW,199,2.0,10.0,76,0.00,,,0.00,0,Wunderground v.1.15,2013-02-06 03:52:00,
2013-02-05 22:55:00,14.1,7.9,29.96,South,176,2.0,10.0,76,0.00,,,0.00,0,Wunderground v.1.15,2013-02-06 03:55:00,
2013-02-05 22:56:00,14.0,7.8,29.96,SW,223,1.0,10.0,76,0.00,,,0.00,0,Wunderground v.1.15,2013-02-06 03:56:00,
2013-02-05 22:57:00,14.0,7.8,29.97,SW,228,1.0,10.0,76,0.00,,,0.00,0,Wunderground v.1.15,2013-02-06 03:57:00,
2013-02-05 22:59:00,13.9,7.7,29.97,SW,217,1.0,10.0,76,0.00,,,0.00,0,Wunderground v.1.15,2013-02-06 03:59:00,
2013-02-05 23:03:00,13.7,7.8,29.97,SSW,206,2.0,10.0,77,0.00,,,0.00,0,Wunderground v.1.15,2013-02-06 04:03:00,
2013-02-05 23:04:00,13.6,7.7,29.97,SW,216,2.0,10.0,77,0.00,,,0.00,0,Wunderground v.1.15,2013-02-06 04:04:00,
2013-02-05 23:07:00,13.5,7.6,29.97,SW,232,2.0,10.0,77,0.00,,,0.00,0,Wunderground v.1.15,2013-02-06 04:07:00,
2013-02-05 23:09:00,13.5,7.9,29.97,SSW,196,2.0,10.0,78,0.00,,,0.00,0,Wunderground v.1.15,2013-02-06 04:09:00,
2013-02-05 23:13:00,13.3,7.7,29.97,SW,234,2.0,10.0,78,0.00,,,0.00,0,Wunderground v.1.15,2013-02-06 04:13:00,
2013-02-05 23:15:00,13.2,7.6,29.97,WNW,300,2.0,10.0,78,0.00,,,0.00,0,Wunderground v.1.15,2013-02-06 04:15:00,
2013-02-05 23:16:00,13.1,7.5,29.98,SSW,202,2.0,10.0,78,0.00,,,0.00,0,Wunderground v.1.15,2013-02-06 04:16:00,
2013-02-05 23:18:00,13.0,7.1,29.98,South,180,2.0,10.0,77,0.00,,,0.00,0,Wunderground v.1.15,2013-02-06 04:18:00,
2013-02-05 23:23:00,12.7,6.9,29.98,SW,227,2.0,10.0,77,0.00,,,0.00,0,Wunderground v.1.15,2013-02-06 04:23:00,
2013-02-05 23:25:00,12.7,6.9,29.99,South,187,2.0,10.0,77,0.00,,,0.00,0,Wunderground v.1.15,2013-02-06 04:25:00,
2013-02-05 23:27:00,12.6,6.8,29.98,North,360,1.0,10.0,77,0.00,,,0.00,0,Wunderground v.1.15,2013-02-06 04:27:00,
2013-02-05 23:29:00,12.5,6.7,29.98,SSE,154,1.0,10.0,77,0.00,,,0.00,0,Wunderground v.1.15,2013-02-06 04:29:00,
2013-02-05 23:31:00,12.3,6.5,29.99,SW,232,1.0,3.0,77,0.00,,,0.00,0,Wunderground v.1.15,2013-02-06 04:31:00,
2013-02-05 23:33:00,12.1,6.3,29.99,SSW,211,2.0,10.0,77,0.00,,,0.00,0,Wunderground v.1.15,2013-02-06 04:33:00,
2013-02-05 23:35:00,12.0,6.2,29.99,SSW,202,2.0,10.0,77,0.00,,,0.00,0,Wunderground v.1.15,2013-02-06 04:35:00,
2013-02-05 23:38:00,11.8,5.7,29.99,East,99,2.0,10.0,76,0.00,,,0.00,0,Wunderground v.1.15,2013-02-06 04:38:00,
2013-02-05 23:40:00,11.7,5.9,29.99,SSW,197,2.0,10.0,77,0.00,,,0.00,0,Wunderground v.1.15,2013-02-06 04:40:00,
2013-02-05 23:41:00,11.6,5.8,29.99,SW,215,2.0,10.0,77,0.00,,,0.00,0,Wunderground v.1.15,2013-02-06 04:41:00,
2013-02-05 23:44:00,11.4,5.6,29.99,SW,221,1.0,10.0,77,0.00,,,0.00,0,Wunderground v.1.15,2013-02-06 04:44:00,
2013-02-05 23:49:00,11.0,5.2,30.00,SSW,213,1.0,10.0,77,0.00,,,0.00,0,Wunderground v.1.15,2013-02-06 04:49:00,
2013-02-05 23:50:00,11.0,5.2,30.00,NNW,330,1.0,1.0,77,0.00,,,0.00,0,Wunderground v.1.15,2013-02-06 04:50:00,
2013-02-05 23:55:00,10.6,4.8,30.00,SSW,204,0.0,10.0,77,0.00,,,0.00,0,Wunderground v.1.15,2013-02-06 04:55:00,
2013-02-05 23:57:00,10.5,4.7,30.00,SSW,211,0.0,10.0,77,0.00,,,0.00,0,Wunderground v.1.15,2013-02-06 04:57:00,
2013-02-05 23:58:00,10.4,4.6,30.00,SSW,209,1.0,10.0,77,0.00,,,0.00,0,Wunderground v.1.15,2013-02-06 04:58:00,